Wetterdaten: Sonntag, 22.01.2023
Datum Zeit Temp. Aussen Temp. o. S. Temp +5cm Feuchte Auss Luftdruck Regen Sonnenschein Regendauer Solar Windben Empfang
22.01.2023 00:00 -0,3 C -1,1 C -3,3 C 94 % 1032,5 hPa 0,0 l/m 0 min 0 min 0 W/m 12,9 km/h (3 Bft) 95,74 %
22.01.2023 00:02 -0,3 C -1,1 C -3,3 C 94 % 1032,4 hPa 0,0 l/m 0 min 0 min 0 W/m 9,7 km/h (2 Bft) 100,00 %
22.01.2023 00:04 -0,3 C -1,1 C -3,3 C 94 % 1032,3 hPa 0,0 l/m 0 min 0 min 0 W/m 16,1 km/h (3 Bft) 100,00 %
22.01.2023 00:07 -0,3 C -1,1 C -3,3 C 94 % 1032,4 hPa 0,0 l/m 0 min 0 min 0 W/m 16,1 km/h (3 Bft) 100,00 %
22.01.2023 00:10 -0,3 C -1,1 C -3,3 C 94 % 1032,3 hPa 0,0 l/m 0 min 0 min 0 W/m 9,7 km/h (2 Bft) 100,00 %
22.01.2023 00:12 -0,3 C -1,1 C -3,3 C 94 % 1032,3 hPa 0,0 l/m 0 min 0 min 0 W/m 12,9 km/h (3 Bft) 100,00 %
22.01.2023 00:14 -0,4 C -1,1 C -3,3 C 94 % 1032,3 hPa 0,0 l/m 0 min 0 min 0 W/m 9,7 km/h (2 Bft) 100,00 %
22.01.2023 00:16 -0,4 C -1,1 C -3,3 C 94 % 1032,3 hPa 0,0 l/m 0 min 0 min 0 W/m 9,7 km/h (2 Bft) 100,00 %
22.01.2023 00:18 -0,4 C -1,1 C -3,3 C 94 % 1032,3 hPa 0,0 l/m 0 min 0 min 0 W/m 9,7 km/h (2 Bft) 100,00 %
22.01.2023 00:20 -0,4 C -1,1 C -3,3 C 94 % 1032,3 hPa 0,0 l/m 0 min 0 min 0 W/m 9,7 km/h (2 Bft) 100,00 %
22.01.2023 00:22 -0,4 C -1,7 C -3,3 C 94 % 1032,3 hPa 0,0 l/m 0 min 0 min 0 W/m 9,7 km/h (2 Bft) 97,87 %
22.01.2023 00:24 -0,4 C -1,1 C -3,3 C 94 % 1032,2 hPa 0,0 l/m 0 min 0 min 0 W/m 12,9 km/h (3 Bft) 97,87 %
22.01.2023 00:26 -0,4 C -1,1 C -3,3 C 95 % 1032,2 hPa 0,0 l/m 0 min 0 min 0 W/m 12,9 km/h (3 Bft) 100,00 %
22.01.2023 00:28 -0,5 C -1,1 C -3,3 C 95 % 1032,3 hPa 0,0 l/m 0 min 0 min 0 W/m 9,7 km/h (2 Bft) 100,00 %
22.01.2023 00:30 -0,5 C -1,1 C -3,3 C 95 % 1032,3 hPa 0,0 l/m 0 min 0 min 0 W/m 12,9 km/h (3 Bft) 97,87 %
22.01.2023 00:32 -0,5 C -1,1 C -3,3 C 95 % 1032,3 hPa 0,0 l/m 0 min 0 min 0 W/m 16,1 km/h (3 Bft) 97,87 %
22.01.2023 00:34 -0,5 C -1,1 C -3,3 C 95 % 1032,3 hPa 0,0 l/m 0 min 0 min 0 W/m 12,9 km/h (3 Bft) 97,87 %
22.01.2023 00:36 -0,5 C -1,1 C -3,3 C 95 % 1032,3 hPa 0,0 l/m 0 min 0 min 0 W/m 12,9 km/h (3 Bft) 97,87 %
22.01.2023 00:38 -0,5 C -1,1 C -3,3 C 95 % 1032,3 hPa 0,0 l/m 0 min 0 min 0 W/m 22,5 km/h (4 Bft) 97,92 %
22.01.2023 00:40 -0,6 C -1,1 C -3,3 C 94 % 1032,2 hPa 0,0 l/m 0 min 0 min 0 W/m 16,1 km/h (3 Bft) 97,87 %
22.01.2023 00:42 -0,6 C -1,1 C -3,3 C 95 % 1032,2 hPa 0,0 l/m 0 min 0 min 0 W/m 12,9 km/h (3 Bft) 93,48 %
22.01.2023 00:44 -0,6 C -1,1 C -3,3 C 95 % 1032,2 hPa 0,0 l/m 0 min 0 min 0 W/m 16,1 km/h (3 Bft) 95,74 %
22.01.2023 00:46 -0,6 C -1,1 C -3,3 C 95 % 1032,2 hPa 0,0 l/m 0 min 0 min 0 W/m 16,1 km/h (3 Bft) 97,87 %
22.01.2023 00:48 -0,6 C -1,1 C -3,3 C 95 % 1032,2 hPa 0,0 l/m 0 min 0 min 0 W/m 12,9 km/h (3 Bft) 91,49 %
22.01.2023 00:50 -0,6 C -1,1 C -3,3 C 95 % 1032,2 hPa 0,0 l/m 0 min 0 min 0 W/m 16,1 km/h (3 Bft) 93,62 %
22.01.2023 00:52 -0,6 C -1,1 C -3,3 C 95 % 1032,3 hPa 0,0 l/m 0 min 0 min 0 W/m 12,9 km/h (3 Bft) 95,74 %
22.01.2023 00:54 -0,6 C -1,1 C -3,3 C 95 % 1032,2 hPa 0,0 l/m 0 min 0 min 0 W/m 16,1 km/h (3 Bft) 93,62 %
22.01.2023 00:56 -0,6 C -1,1 C -3,3 C 95 % 1032,2 hPa 0,0 l/m 0 min 0 min 0 W/m 12,9 km/h (3 Bft) 93,62 %
22.01.2023 00:58 -0,6 C -1,1 C -3,3 C 95 % 1032,2 hPa 0,0 l/m 0 min 0 min 0 W/m 22,5 km/h (4 Bft) 95,65 %
22.01.2023 01:00 -0,6 C -1,1 C -3,3 C 95 % 1032,1 hPa 0,0 l/m 0 min 0 min 0 W/m 19,3 km/h (3 Bft) 93,62 %
22.01.2023 01:02 -0,6 C -1,1 C -3,3 C 95 % 1032,1 hPa 0,0 l/m 0 min 0 min 0 W/m 19,3 km/h (3 Bft) 95,74 %
22.01.2023 01:04 -0,6 C -1,1 C -3,3 C 95 % 1032,1 hPa 0,0 l/m 0 min 0 min 0 W/m 16,1 km/h (3 Bft) 93,62 %
22.01.2023 01:06 -0,6 C -1,1 C -3,3 C 95 % 1032,1 hPa 0,0 l/m 0 min 0 min 0 W/m 12,9 km/h (3 Bft) 90,57 %
22.01.2023 01:08 -0,6 C -1,1 C -3,3 C 95 % 1032,1 hPa 0,0 l/m 0 min 0 min 0 W/m 16,1 km/h (3 Bft) 93,62 %
22.01.2023 01:10 -0,6 C -1,1 C -3,3 C 95 % 1032,2 hPa 0,0 l/m 0 min 0 min 0 W/m 19,3 km/h (3 Bft) 91,49 %
22.01.2023 01:12 -0,6 C -1,1 C -3,3 C 95 % 1032,1 hPa 0,0 l/m 0 min 0 min 0 W/m 12,9 km/h (3 Bft) 89,36 %
22.01.2023 01:14 -0,6 C -1,1 C -3,3 C 95 % 1032,1 hPa 0,0 l/m 0 min 0 min 0 W/m 19,3 km/h (3 Bft) 91,49 %
22.01.2023 01:16 -0,6 C -1,1 C -3,3 C 95 % 1032,1 hPa 0,0 l/m 0 min 0 min 0 W/m 12,9 km/h (3 Bft) 91,49 %
22.01.2023 01:18 -0,6 C -1,1 C -3,3 C 95 % 1032,2 hPa 0,0 l/m 0 min 0 min 0 W/m 12,9 km/h (3 Bft) 95,65 %
22.01.2023 01:20 -0,6 C -1,1 C -3,3 C 95 % 1032,2 hPa 0,0 l/m 0 min 0 min 0 W/m 9,7 km/h (2 Bft) 95,74 %
22.01.2023 01:22 -0,6 C -1,1 C -3,3 C 95 % 1032,1 hPa 0,0 l/m 0 min 0 min 0 W/m 16,1 km/h (3 Bft) 97,87 %
22.01.2023 01:24 -0,6 C -1,1 C -3,3 C 95 % 1032,1 hPa 0,0 l/m 0 min 0 min 0 W/m 16,1 km/h (3 Bft) 97,87 %
22.01.2023 01:26 -0,5 C -1,1 C -3,3 C 95 % 1032,1 hPa 0,0 l/m 0 min 0 min 0 W/m 9,7 km/h (2 Bft) 97,87 %
22.01.2023 01:28 -0,5 C -1,1 C -3,3 C 95 % 1032,1 hPa 0,0 l/m 0 min 0 min 0 W/m 12,9 km/h (3 Bft) 95,74 %
22.01.2023 01:30 -0,5 C -1,1 C -3,3 C 95 % 1032,0 hPa 0,0 l/m 0 min 0 min 0 W/m 16,1 km/h (3 Bft) 93,62 %
22.01.2023 01:32 -0,5 C -1,1 C -3,3 C 95 % 1032,0 hPa 0,0 l/m 0 min 0 min 0 W/m 22,5 km/h (4 Bft) 97,83 %
22.01.2023 01:34 -0,5 C -1,1 C -3,3 C 95 % 1031,9 hPa 0,0 l/m 0 min 0 min 0 W/m 9,7 km/h (2 Bft) 97,87 %
22.01.2023 01:36 -0,5 C -1,1 C -3,3 C 95 % 1031,9 hPa 0,0 l/m 0 min 0 min 0 W/m 12,9 km/h (3 Bft) 97,87 %
22.01.2023 01:38 -0,5 C -1,1 C -3,3 C 95 % 1031,9 hPa 0,0 l/m 0 min 0 min 0 W/m 9,7 km/h (2 Bft) 93,62 %
22.01.2023 01:40 -0,5 C -1,1 C -3,3 C 95 % 1031,8 hPa 0,0 l/m 0 min 0 min 0 W/m 19,3 km/h (3 Bft) 95,74 %
22.01.2023 01:42 -0,5 C -1,1 C -3,3 C 95 % 1031,9 hPa 0,0 l/m 0 min 0 min 0 W/m 9,7 km/h (2 Bft) 97,87 %
22.01.2023 01:44 -0,5 C -1,1 C -3,3 C 95 % 1031,9 hPa 0,0 l/m 0 min 0 min 0 W/m 9,7 km/h (2 Bft) 100,00 %
22.01.2023 01:46 -0,5 C -1,1 C -3,3 C 95 % 1031,8 hPa 0,0 l/m 0 min 0 min 0 W/m 16,1 km/h (3 Bft) 100,00 %
22.01.2023 01:48 -0,5 C -1,1 C -3,3 C 95 % 1031,8 hPa 0,0 l/m 0 min 0 min 0 W/m 9,7 km/h (2 Bft) 97,87 %
22.01.2023 01:50 -0,5 C -1,1 C -3,3 C 95 % 1031,8 hPa 0,0 l/m 0 min 0 min 0 W/m 9,7 km/h (2 Bft) 97,87 %
22.01.2023 01:52 -0,5 C -1,1 C -3,3 C 95 % 1031,7 hPa 0,0 l/m 0 min 0 min 0 W/m 16,1 km/h (3 Bft) 100,00 %
22.01.2023 01:54 -0,4 C -1,1 C -3,3 C 95 % 1031,8 hPa 0,0 l/m 0 min 0 min 0 W/m 12,9 km/h (3 Bft) 100,00 %
22.01.2023 01:56 -0,4 C -1,1 C -3,3 C 95 % 1031,7 hPa 0,0 l/m 0 min 0 min 0 W/m 6,4 km/h (2 Bft) 100,00 %
22.01.2023 01:58 -0,4 C -1,1 C -3,3 C 95 % 1031,8 hPa 0,0 l/m 0 min 0 min 0 W/m 22,5 km/h (4 Bft) 100,00 %
22.01.2023 02:00 -0,4 C -1,1 C -2,8 C 95 % 1031,9 hPa 0,0 l/m 0 min 0 min 0 W/m 12,9 km/h (3 Bft) 97,83 %
22.01.2023 02:02 -0,4 C -1,1 C -2,8 C 95 % 1031,9 hPa 0,0 l/m 0 min 0 min 0 W/m 22,5 km/h (4 Bft) 97,22 %
22.01.2023 02:04 -0,4 C -1,1 C -2,8 C 95 % 1031,9 hPa 0,0 l/m 0 min 0 min 0 W/m 12,9 km/h (3 Bft) 96,55 %
22.01.2023 02:06 -0,4 C -1,1 C -2,8 C 95 % 1031,9 hPa 0,0 l/m 0 min 0 min 0 W/m 16,1 km/h (3 Bft) 100,00 %
22.01.2023 02:08 -0,4 C -1,1 C -2,8 C 95 % 1031,9 hPa 0,0 l/m 0 min 0 min 0 W/m 12,9 km/h (3 Bft) 100,00 %
22.01.2023 02:10 -0,3 C -1,1 C -2,8 C 95 % 1032,0 hPa 0,0 l/m 0 min 0 min 0 W/m 9,7 km/h (2 Bft) 100,00 %
22.01.2023 02:12 -0,3 C -0,6 C -2,8 C 95 % 1031,9 hPa 0,0 l/m 0 min 0 min 0 W/m 16,1 km/h (3 Bft) 100,00 %
22.01.2023 02:14 -0,3 C -1,1 C -2,8 C 95 % 1031,9 hPa 0,0 l/m 0 min 0 min 0 W/m 19,3 km/h (3 Bft) 100,00 %
22.01.2023 02:16 -0,3 C -0,6 C -2,8 C 95 % 1031,7 hPa 0,0 l/m 0 min 0 min 0 W/m 9,7 km/h (2 Bft) 100,00 %
22.01.2023 02:18 -0,3 C -0,6 C -2,8 C 95 % 1031,7 hPa 0,0 l/m 0 min 0 min 0 W/m 16,1 km/h (3 Bft) 100,00 %
22.01.2023 02:20 -0,3 C -0,6 C -2,8 C 95 % 1031,7 hPa 0,0 l/m 0 min 0 min 0 W/m 9,7 km/h (2 Bft) 97,87 %
22.01.2023 02:22 -0,3 C -0,6 C -2,8 C 95 % 1031,6 hPa 0,0 l/m 0 min 0 min 0 W/m 12,9 km/h (3 Bft) 100,00 %
22.01.2023 02:24 -0,3 C -0,6 C -2,8 C 95 % 1031,6 hPa 0,0 l/m 0 min 0 min 0 W/m 16,1 km/h (3 Bft) 97,87 %
22.01.2023 02:26 -0,3 C -0,6 C -2,8 C 95 % 1031,6 hPa 0,0 l/m 0 min 0 min 0 W/m 19,3 km/h (3 Bft) 100,00 %
22.01.2023 02:28 -0,3 C -0,6 C -2,8 C 95 % 1031,6 hPa 0,0 l/m 0 min 0 min 0 W/m 16,1 km/h (3 Bft) 97,87 %
22.01.2023 02:30 -0,3 C -0,6 C -2,8 C 95 % 1031,7 hPa 0,0 l/m 0 min 0 min 0 W/m 16,1 km/h (3 Bft) 100,00 %
22.01.2023 02:32 -0,2 C -0,6 C -2,8 C 95 % 1031,7 hPa 0,0 l/m 0 min 0 min 0 W/m 19,3 km/h (3 Bft) 100,00 %
22.01.2023 02:34 -0,2 C -0,6 C -2,8 C 95 % 1031,7 hPa 0,0 l/m 0 min 0 min 0 W/m 16,1 km/h (3 Bft) 97,87 %
22.01.2023 02:36 -0,2 C -0,6 C -2,8 C 95 % 1031,7 hPa 0,0 l/m 0 min 0 min 0 W/m 9,7 km/h (2 Bft) 100,00 %
22.01.2023 02:38 -0,2 C -0,6 C -2,8 C 95 % 1031,6 hPa 0,0 l/m 0 min 0 min 0 W/m 16,1 km/h (3 Bft) 98,08 %
22.01.2023 02:40 -0,2 C -0,6 C -2,8 C 95 % 1031,7 hPa 0,0 l/m 0 min 0 min 0 W/m 6,4 km/h (2 Bft) 95,74 %
22.01.2023 02:42 -0,2 C -0,6 C -2,8 C 95 % 1031,6 hPa 0,0 l/m 0 min 0 min 0 W/m 12,9 km/h (3 Bft) 100,00 %
22.01.2023 02:44 -0,2 C -0,6 C -2,8 C 95 % 1031,7 hPa 0,0 l/m 0 min 0 min 0 W/m 16,1 km/h (3 Bft) 100,00 %
22.01.2023 02:46 -0,2 C -0,6 C -2,8 C 95 % 1031,6 hPa 0,0 l/m 0 min 0 min 0 W/m 12,9 km/h (3 Bft) 95,74 %
22.01.2023 02:48 -0,2 C -0,6 C -2,8 C 95 % 1031,6 hPa 0,0 l/m 0 min 0 min 0 W/m 16,1 km/h (3 Bft) 100,00 %
22.01.2023 02:50 -0,2 C -0,6 C -2,8 C 95 % 1031,6 hPa 0,0 l/m 0 min 0 min 0 W/m 16,1 km/h (3 Bft) 95,74 %
22.01.2023 02:52 -0,2 C -0,6 C -2,8 C 95 % 1031,6 hPa 0,0 l/m 0 min 0 min 0 W/m 9,7 km/h (2 Bft) 97,87 %
22.01.2023 02:54 -0,2 C -0,6 C -2,8 C 95 % 1031,6 hPa 0,0 l/m 0 min 0 min 0 W/m 12,9 km/h (3 Bft) 97,83 %
22.01.2023 02:56 -0,2 C -0,6 C -2,8 C 95 % 1031,6 hPa 0,0 l/m 0 min 0 min 0 W/m 12,9 km/h (3 Bft) 95,74 %
22.01.2023 02:58 -0,2 C -0,6 C -2,8 C 95 % 1031,6 hPa 0,0 l/m 0 min 0 min 0 W/m 9,7 km/h (2 Bft) 95,74 %
22.01.2023 03:00 -0,2 C -0,6 C -2,8 C 95 % 1031,6 hPa 0,0 l/m 0 min 0 min 0 W/m 12,9 km/h (3 Bft) 97,87 %
22.01.2023 03:02 -0,2 C -0,6 C -2,8 C 95 % 1031,6 hPa 0,0 l/m 0 min 0 min 0 W/m 9,7 km/h (2 Bft) 93,62 %
22.01.2023 03:04 -0,2 C -0,6 C -2,8 C 95 % 1031,5 hPa 0,0 l/m 0 min 0 min 0 W/m 6,4 km/h (2 Bft) 97,87 %
22.01.2023 03:06 -0,2 C -0,6 C -2,8 C 95 % 1031,5 hPa 0,0 l/m 0 min 0 min 0 W/m 19,3 km/h (3 Bft) 97,87 %
22.01.2023 03:08 -0,2 C -0,6 C -2,8 C 95 % 1031,5 hPa 0,0 l/m 0 min 0 min 0 W/m 9,7 km/h (2 Bft) 100,00 %
22.01.2023 03:10 -0,2 C -0,6 C -2,8 C 95 % 1031,5 hPa 0,0 l/m 0 min 0 min 0 W/m 9,7 km/h (2 Bft) 100,00 %
22.01.2023 03:12 -0,2 C -0,6 C -2,8 C 95 % 1031,5 hPa 0,0 l/m 0 min 0 min 0 W/m 16,1 km/h (3 Bft) 97,87 %
22.01.2023 03:14 -0,2 C -0,6 C -2,8 C 95 % 1031,6 hPa 0,0 l/m 0 min 0 min 0 W/m 12,9 km/h (3 Bft) 97,87 %
22.01.2023 03:16 -0,2 C -0,6 C -2,8 C 95 % 1031,6 hPa 0,0 l/m 0 min 0 min 0 W/m 9,7 km/h (2 Bft) 100,00 %
22.01.2023 03:18 -0,2 C -0,6 C -2,8 C 94 % 1031,6 hPa 0,0 l/m 0 min 0 min 0 W/m 12,9 km/h (3 Bft) 100,00 %
22.01.2023 03:20 -0,2 C -0,6 C -2,8 C 94 % 1031,6 hPa 0,0 l/m 0 min 0 min 0 W/m 12,9 km/h (3 Bft) 100,00 %
22.01.2023 03:22 -0,2 C -0,6 C -2,8 C 94 % 1031,5 hPa 0,0 l/m 0 min 0 min 0 W/m 16,1 km/h (3 Bft) 97,87 %
22.01.2023 03:24 -0,2 C -0,6 C -2,8 C 94 % 1031,5 hPa 0,0 l/m 0 min 0 min 0 W/m 16,1 km/h (3 Bft) 100,00 %
22.01.2023 03:26 -0,2 C -0,6 C -2,8 C 94 % 1031,5 hPa 0,0 l/m 0 min 0 min 0 W/m 12,9 km/h (3 Bft) 97,87 %
22.01.2023 03:28 -0,2 C -0,6 C -2,8 C 94 % 1031,6 hPa 0,0 l/m 0 min 0 min 0 W/m 12,9 km/h (3 Bft) 100,00 %
22.01.2023 03:30 -0,2 C -0,6 C -2,8 C 94 % 1031,5 hPa 0,0 l/m 0 min 0 min 0 W/m 12,9 km/h (3 Bft) 95,74 %
22.01.2023 03:32 -0,2 C -0,6 C -2,8 C 94 % 1031,5 hPa 0,0 l/m 0 min 0 min 0 W/m 25,7 km/h (4 Bft) 93,62 %
22.01.2023 03:34 -0,2 C -0,6 C -2,8 C 95 % 1031,5 hPa 0,0 l/m 0 min 0 min 0 W/m 19,3 km/h (3 Bft) 93,48 %
22.01.2023 03:36 -0,2 C -0,6 C -2,8 C 95 % 1031,5 hPa 0,0 l/m 0 min 0 min 0 W/m 12,9 km/h (3 Bft) 95,74 %
22.01.2023 03:38 -0,2 C -0,6 C -2,8 C 95 % 1031,5 hPa 0,0 l/m 0 min 0 min 0 W/m 16,1 km/h (3 Bft) 95,74 %
22.01.2023 03:40 -0,2 C -0,6 C -2,8 C 94 % 1031,5 hPa 0,0 l/m 0 min 0 min 0 W/m 12,9 km/h (3 Bft) 95,74 %
22.01.2023 03:42 -0,2 C -0,6 C -2,8 C 94 % 1031,5 hPa 0,0 l/m 0 min 0 min 0 W/m 19,3 km/h (3 Bft) 97,87 %
22.01.2023 03:44 -0,2 C -0,6 C -2,8 C 94 % 1031,5 hPa 0,0 l/m 0 min 0 min 0 W/m 6,4 km/h (2 Bft) 93,62 %
22.01.2023 03:46 -0,2 C -0,6 C -2,8 C 94 % 1031,5 hPa 0,0 l/m 0 min 0 min 0 W/m 9,7 km/h (2 Bft) 95,74 %
22.01.2023 03:48 -0,2 C -0,6 C -2,8 C 94 % 1031,5 hPa 0,0 l/m 0 min 0 min 0 W/m 16,1 km/h (3 Bft) 95,65 %
22.01.2023 03:50 -0,2 C -0,6 C -2,8 C 94 % 1031,5 hPa 0,0 l/m 0 min 0 min 0 W/m 9,7 km/h (2 Bft) 95,74 %
22.01.2023 03:52 -0,2 C -0,6 C -2,8 C 94 % 1031,4 hPa 0,0 l/m 0 min 0 min 0 W/m 22,5 km/h (4 Bft) 93,62 %
22.01.2023 03:54 -0,2 C -0,6 C -2,8 C 94 % 1031,5 hPa 0,0 l/m 0 min 0 min 0 W/m 22,5 km/h (4 Bft) 91,49 %
22.01.2023 03:56 -0,2 C -0,6 C -2,8 C 94 % 1031,4 hPa 0,0 l/m 0 min 0 min 0 W/m 16,1 km/h (3 Bft) 95,74 %
22.01.2023 03:58 -0,2 C -0,6 C -2,8 C 94 % 1031,4 hPa 0,0 l/m 0 min 0 min 0 W/m 9,7 km/h (2 Bft) 95,74 %
22.01.2023 04:00 -0,2 C -0,6 C -2,8 C 94 % 1031,4 hPa 0,0 l/m 0 min 0 min 0 W/m 16,1 km/h (3 Bft) 93,62 %
22.01.2023 04:02 -0,2 C -0,6 C -2,8 C 94 % 1031,4 hPa 0,0 l/m 0 min 0 min 0 W/m 9,7 km/h (2 Bft) 100,00 %
22.01.2023 04:04 -0,2 C -0,6 C -2,8 C 94 % 1031,4 hPa 0,0 l/m 0 min 0 min 0 W/m 19,3 km/h (3 Bft) 97,87 %
22.01.2023 04:06 -0,2 C -0,6 C -2,8 C 94 % 1031,4 hPa 0,0 l/m 0 min 0 min 0 W/m 16,1 km/h (3 Bft) 95,74 %
22.01.2023 04:08 -0,2 C -0,6 C -2,8 C 94 % 1031,4 hPa 0,0 l/m 0 min 0 min 0 W/m 16,1 km/h (3 Bft) 95,74 %
22.01.2023 04:10 -0,2 C -0,6 C -2,8 C 94 % 1031,4 hPa 0,0 l/m 0 min 0 min 0 W/m 6,4 km/h (2 Bft) 93,62 %
22.01.2023 04:12 -0,2 C -0,6 C -2,8 C 94 % 1031,4 hPa 0,0 l/m 0 min 0 min 0 W/m 12,9 km/h (3 Bft) 93,62 %
22.01.2023 04:14 -0,2 C -0,6 C -2,8 C 94 % 1031,3 hPa 0,0 l/m 0 min 0 min 0 W/m 16,1 km/h (3 Bft) 93,48 %
22.01.2023 04:16 -0,2 C -0,6 C -2,8 C 94 % 1031,3 hPa 0,0 l/m 0 min 0 min 0 W/m 12,9 km/h (3 Bft) 97,87 %
22.01.2023 04:18 -0,2 C -0,6 C -2,8 C 94 % 1031,3 hPa 0,0 l/m 0 min 0 min 0 W/m 16,1 km/h (3 Bft) 95,74 %
22.01.2023 04:20 -0,2 C -0,6 C -2,8 C 94 % 1031,3 hPa 0,0 l/m 0 min 0 min 0 W/m 9,7 km/h (2 Bft) 95,74 %
22.01.2023 04:22 -0,2 C -0,6 C -2,8 C 94 % 1031,3 hPa 0,0 l/m 0 min 0 min 0 W/m 16,1 km/h (3 Bft) 100,00 %
22.01.2023 04:24 -0,2 C -0,6 C -2,8 C 94 % 1031,3 hPa 0,0 l/m 0 min 0 min 0 W/m 12,9 km/h (3 Bft) 100,00 %
22.01.2023 04:30 -0,2 C -0,6 C -2,8 C 94 % 1031,2 hPa 0,0 l/m 0 min 0 min 0 W/m 19,3 km/h (3 Bft) 100,00 %
22.01.2023 04:32 -0,2 C -0,6 C -2,8 C 94 % 1031,2 hPa 0,0 l/m 0 min 0 min 0 W/m 9,7 km/h (2 Bft) 100,00 %
22.01.2023 04:34 -0,2 C -0,6 C -2,8 C 94 % 1031,2 hPa 0,0 l/m 0 min 0 min 0 W/m 25,7 km/h (4 Bft) 100,00 %
22.01.2023 04:36 -0,2 C -0,6 C -2,8 C 94 % 1031,2 hPa 0,0 l/m 0 min 0 min 0 W/m 12,9 km/h (3 Bft) 96,43 %
22.01.2023 04:38 -0,2 C -0,6 C -2,8 C 94 % 1031,2 hPa 0,0 l/m 0 min 0 min 0 W/m 16,1 km/h (3 Bft) 95,74 %
22.01.2023 04:40 -0,2 C -0,6 C -2,8 C 94 % 1031,2 hPa 0,0 l/m 0 min 0 min 0 W/m 12,9 km/h (3 Bft) 97,83 %
22.01.2023 04:42 -0,2 C -0,6 C -2,8 C 94 % 1031,2 hPa 0,0 l/m 0 min 0 min 0 W/m 9,7 km/h (2 Bft) 97,87 %
22.01.2023 04:44 -0,2 C -0,6 C -2,8 C 94 % 1031,1 hPa 0,0 l/m 0 min 0 min 0 W/m 9,7 km/h (2 Bft) 97,87 %
22.01.2023 04:46 -0,2 C -0,6 C -2,8 C 94 % 1031,1 hPa 0,0 l/m 0 min 0 min 0 W/m 19,3 km/h (3 Bft) 97,87 %
22.01.2023 04:48 -0,2 C -0,6 C -2,8 C 94 % 1031,1 hPa 0,0 l/m 0 min 0 min 0 W/m 9,7 km/h (2 Bft) 97,87 %
22.01.2023 04:50 -0,2 C -0,6 C -2,8 C 94 % 1031,1 hPa 0,0 l/m 0 min 0 min 0 W/m 6,4 km/h (2 Bft) 97,87 %
22.01.2023 04:52 -0,2 C -0,6 C -2,8 C 94 % 1031,1 hPa 0,0 l/m 0 min 0 min 0 W/m 16,1 km/h (3 Bft) 93,48 %
22.01.2023 04:54 -0,2 C -0,6 C -2,8 C 94 % 1031,2 hPa 0,0 l/m 0 min 0 min 0 W/m 19,3 km/h (3 Bft) 95,74 %
22.01.2023 04:56 -0,2 C -0,6 C -2,8 C 94 % 1031,2 hPa 0,0 l/m 0 min 0 min 0 W/m 9,7 km/h (2 Bft) 95,74 %
22.01.2023 04:58 -0,2 C -1,1 C -2,8 C 94 % 1031,2 hPa 0,0 l/m 0 min 0 min 0 W/m 19,3 km/h (3 Bft) 97,87 %
22.01.2023 05:00 -0,3 C -1,1 C -2,8 C 94 % 1031,1 hPa 0,0 l/m 0 min 0 min 0 W/m 12,9 km/h (3 Bft) 97,87 %
22.01.2023 05:02 -0,2 C -1,1 C -2,8 C 94 % 1031,1 hPa 0,0 l/m 0 min 0 min 0 W/m 9,7 km/h (2 Bft) 97,87 %
22.01.2023 05:04 -0,3 C -1,1 C -2,8 C 94 % 1031,1 hPa 0,0 l/m 0 min 0 min 0 W/m 9,7 km/h (2 Bft) 100,00 %
22.01.2023 05:06 -0,3 C -1,1 C -2,8 C 94 % 1031,1 hPa 0,0 l/m 0 min 0 min 0 W/m 6,4 km/h (2 Bft) 100,00 %
22.01.2023 05:08 -0,3 C -1,1 C -2,8 C 94 % 1031,1 hPa 0,0 l/m 0 min 0 min 0 W/m 6,4 km/h (2 Bft) 95,74 %
22.01.2023 05:10 -0,3 C -1,1 C -2,8 C 94 % 1031,1 hPa 0,0 l/m 0 min 0 min 0 W/m 9,7 km/h (2 Bft) 100,00 %
22.01.2023 05:12 -0,3 C -1,1 C -2,8 C 94 % 1031,1 hPa 0,0 l/m 0 min 0 min 0 W/m 9,7 km/h (2 Bft) 100,00 %
22.01.2023 05:14 -0,3 C -1,1 C -2,8 C 94 % 1031,1 hPa 0,0 l/m 0 min 0 min 0 W/m 16,1 km/h (3 Bft) 95,74 %
22.01.2023 05:16 -0,3 C -1,1 C -2,8 C 94 % 1031,1 hPa 0,0 l/m 0 min 0 min 0 W/m 16,1 km/h (3 Bft) 100,00 %
22.01.2023 05:18 -0,3 C -1,1 C -2,8 C 94 % 1031,1 hPa 0,0 l/m 0 min 0 min 0 W/m 9,7 km/h (2 Bft) 100,00 %
22.01.2023 05:20 -0,3 C -1,1 C -2,8 C 94 % 1031,1 hPa 0,0 l/m 0 min 0 min 0 W/m 22,5 km/h (4 Bft) 100,00 %
22.01.2023 05:22 -0,3 C -1,1 C -2,8 C 94 % 1031,1 hPa 0,0 l/m 0 min 0 min 0 W/m 6,4 km/h (2 Bft) 100,00 %
22.01.2023 05:24 -0,3 C -1,1 C -2,8 C 94 % 1031,1 hPa 0,0 l/m 0 min 0 min 0 W/m 16,1 km/h (3 Bft) 100,00 %
22.01.2023 05:26 -0,3 C -1,1 C -2,8 C 94 % 1031,1 hPa 0,0 l/m 0 min 0 min 0 W/m 9,7 km/h (2 Bft) 100,00 %
22.01.2023 05:28 -0,4 C -1,1 C -2,8 C 94 % 1031,0 hPa 0,0 l/m 0 min 0 min 0 W/m 16,1 km/h (3 Bft) 100,00 %
22.01.2023 05:30 -0,4 C -1,1 C -3,3 C 94 % 1031,0 hPa 0,0 l/m 0 min 0 min 0 W/m 6,4 km/h (2 Bft) 100,00 %
22.01.2023 05:32 -0,4 C -1,1 C -2,8 C 94 % 1031,0 hPa 0,0 l/m 0 min 0 min 0 W/m 19,3 km/h (3 Bft) 100,00 %
22.01.2023 05:34 -0,4 C -1,1 C -2,8 C 94 % 1031,1 hPa 0,0 l/m 0 min 0 min 0 W/m 16,1 km/h (3 Bft) 100,00 %
22.01.2023 05:36 -0,4 C -1,1 C -2,8 C 94 % 1031,0 hPa 0,0 l/m 0 min 0 min 0 W/m 9,7 km/h (2 Bft) 100,00 %
22.01.2023 05:38 -0,4 C -1,1 C -3,3 C 94 % 1031,1 hPa 0,0 l/m 0 min 0 min 0 W/m 9,7 km/h (2 Bft) 100,00 %
22.01.2023 05:40 -0,4 C -1,1 C -3,3 C 94 % 1031,1 hPa 0,0 l/m 0 min 0 min 0 W/m 16,1 km/h (3 Bft) 100,00 %
22.01.2023 05:42 -0,4 C -1,1 C -3,3 C 94 % 1031,1 hPa 0,0 l/m 0 min 0 min 0 W/m 16,1 km/h (3 Bft) 100,00 %
22.01.2023 05:44 -0,4 C -1,1 C -3,3 C 94 % 1031,1 hPa 0,0 l/m 0 min 0 min 0 W/m 12,9 km/h (3 Bft) 100,00 %
22.01.2023 05:46 -0,4 C -1,1 C -3,3 C 94 % 1031,1 hPa 0,0 l/m 0 min 0 min 0 W/m 12,9 km/h (3 Bft) 97,83 %
22.01.2023 05:48 -0,4 C -1,1 C -3,3 C 94 % 1031,0 hPa 0,0 l/m 0 min 0 min 0 W/m 9,7 km/h (2 Bft) 97,87 %
22.01.2023 05:50 -0,4 C -1,1 C -3,3 C 94 % 1031,1 hPa 0,0 l/m 0 min 0 min 0 W/m 16,1 km/h (3 Bft) 100,00 %
22.01.2023 05:52 -0,4 C -1,1 C -3,3 C 94 % 1031,1 hPa 0,0 l/m 0 min 0 min 0 W/m 16,1 km/h (3 Bft) 97,87 %
22.01.2023 05:54 -0,4 C -1,1 C -3,3 C 94 % 1031,1 hPa 0,0 l/m 0 min 0 min 0 W/m 9,7 km/h (2 Bft) 100,00 %
22.01.2023 05:56 -0,5 C -1,1 C -3,3 C 94 % 1031,1 hPa 0,0 l/m 0 min 0 min 0 W/m 9,7 km/h (2 Bft) 100,00 %
22.01.2023 05:58 -0,5 C -1,1 C -3,3 C 94 % 1031,2 hPa 0,0 l/m 0 min 0 min 0 W/m 9,7 km/h (2 Bft) 97,83 %
22.01.2023 06:00 -0,5 C -1,1 C -3,3 C 94 % 1031,1 hPa 0,0 l/m 0 min 0 min 0 W/m 9,7 km/h (2 Bft) 97,87 %
22.01.2023 06:02 -0,5 C -1,1 C -3,3 C 94 % 1031,1 hPa 0,0 l/m 0 min 0 min 0 W/m 12,9 km/h (3 Bft) 93,62 %
22.01.2023 06:04 -0,6 C -1,1 C -3,3 C 94 % 1031,1 hPa 0,0 l/m 0 min 0 min 0 W/m 9,7 km/h (2 Bft) 97,87 %
22.01.2023 06:07 -0,6 C -1,1 C -3,3 C 94 % 1031,1 hPa 0,0 l/m 0 min 0 min 0 W/m 16,1 km/h (3 Bft) 97,22 %
22.01.2023 06:08 -0,5 C -1,1 C -3,3 C 94 % 1031,1 hPa 0,0 l/m 0 min 0 min 0 W/m 9,7 km/h (2 Bft) 95,83 %
22.01.2023 06:12 -0,6 C -1,1 C -3,3 C 94 % 1031,1 hPa 0,0 l/m 0 min 0 min 0 W/m 12,9 km/h (3 Bft) 96,08 %
22.01.2023 06:14 -0,5 C -1,1 C -3,3 C 94 % 1031,1 hPa 0,0 l/m 0 min 0 min 0 W/m 19,3 km/h (3 Bft) 97,87 %
22.01.2023 06:16 -0,5 C -1,1 C -3,3 C 94 % 1031,1 hPa 0,0 l/m 0 min 0 min 0 W/m 9,7 km/h (2 Bft) 59,57 %
22.01.2023 06:18 -0,5 C -1,1 C -3,3 C 94 % 1031,0 hPa 0,0 l/m 0 min 0 min 0 W/m 16,1 km/h (3 Bft) 93,94 %
22.01.2023 06:20 -0,5 C -1,1 C -3,3 C 94 % 1031,0 hPa 0,0 l/m 0 min 0 min 0 W/m 19,3 km/h (3 Bft) 93,48 %
22.01.2023 06:22 -0,5 C -1,1 C -3,3 C 94 % 1031,0 hPa 0,0 l/m 0 min 0 min 0 W/m 16,1 km/h (3 Bft) 95,74 %
22.01.2023 06:24 -0,5 C -1,1 C -2,8 C 94 % 1031,0 hPa 0,0 l/m 0 min 0 min 0 W/m 16,1 km/h (3 Bft) 95,74 %
22.01.2023 06:26 -0,4 C -1,1 C -2,8 C 94 % 1031,0 hPa 0,0 l/m 0 min 0 min 0 W/m 9,7 km/h (2 Bft) 95,74 %
22.01.2023 06:28 -0,4 C -1,1 C -2,8 C 94 % 1031,0 hPa 0,0 l/m 0 min 0 min 0 W/m 6,4 km/h (2 Bft) 95,74 %
22.01.2023 06:30 -0,4 C -1,1 C -3,3 C 94 % 1031,1 hPa 0,0 l/m 0 min 0 min 0 W/m 12,9 km/h (3 Bft) 95,74 %
22.01.2023 06:32 -0,4 C -1,1 C -2,8 C 94 % 1031,0 hPa 0,0 l/m 0 min 0 min 0 W/m 19,3 km/h (3 Bft) 93,62 %
22.01.2023 06:34 -0,4 C -1,1 C -3,3 C 94 % 1031,1 hPa 0,0 l/m 0 min 0 min 0 W/m 16,1 km/h (3 Bft) 93,48 %
22.01.2023 06:36 -0,4 C -1,1 C -3,3 C 94 % 1031,1 hPa 0,0 l/m 0 min 0 min 0 W/m 16,1 km/h (3 Bft) 93,62 %
22.01.2023 06:38 -0,4 C -1,1 C -2,8 C 94 % 1031,1 hPa 0,0 l/m 0 min 0 min 0 W/m 19,3 km/h (3 Bft) 93,62 %
22.01.2023 06:40 -0,4 C -1,1 C -2,8 C 94 % 1031,1 hPa 0,0 l/m 0 min 0 min 0 W/m 12,9 km/h (3 Bft) 95,74 %
22.01.2023 06:42 -0,4 C -1,1 C -2,8 C 94 % 1031,1 hPa 0,0 l/m 0 min 0 min 0 W/m 12,9 km/h (3 Bft) 93,62 %
22.01.2023 06:44 -0,4 C -1,1 C -2,8 C 94 % 1031,1 hPa 0,0 l/m 0 min 0 min 0 W/m 16,1 km/h (3 Bft) 95,74 %
22.01.2023 06:46 -0,4 C -1,1 C -2,8 C 94 % 1031,1 hPa 0,0 l/m 0 min 0 min 0 W/m 16,1 km/h (3 Bft) 97,83 %
22.01.2023 06:48 -0,4 C -1,1 C -2,8 C 94 % 1031,1 hPa 0,0 l/m 0 min 0 min 0 W/m 19,3 km/h (3 Bft) 91,49 %
22.01.2023 06:50 -0,4 C -1,1 C -2,8 C 94 % 1031,1 hPa 0,0 l/m 0 min 0 min 0 W/m 12,9 km/h (3 Bft) 97,87 %
22.01.2023 06:52 -0,4 C -1,1 C -2,8 C 94 % 1031,1 hPa 0,0 l/m 0 min 0 min 0 W/m 6,4 km/h (2 Bft) 93,62 %
22.01.2023 06:54 -0,4 C -1,1 C -2,8 C 94 % 1031,1 hPa 0,0 l/m 0 min 0 min 0 W/m 12,9 km/h (3 Bft) 97,87 %
22.01.2023 06:56 -0,4 C -1,1 C -2,8 C 94 % 1031,1 hPa 0,0 l/m 0 min 0 min 0 W/m 9,7 km/h (2 Bft) 97,87 %
22.01.2023 06:58 -0,4 C -1,1 C -2,8 C 94 % 1031,2 hPa 0,0 l/m 0 min 0 min 0 W/m 22,5 km/h (4 Bft) 97,87 %
22.01.2023 07:00 -0,4 C -1,1 C -2,8 C 94 % 1031,2 hPa 0,0 l/m 0 min 0 min 0 W/m 12,9 km/h (3 Bft) 97,83 %
22.01.2023 07:02 -0,4 C -1,1 C -2,8 C 95 % 1031,1 hPa 0,0 l/m 0 min 0 min 0 W/m 12,9 km/h (3 Bft) 97,87 %
22.01.2023 07:04 -0,4 C -1,1 C -2,8 C 95 % 1031,1 hPa 0,0 l/m 0 min 0 min 0 W/m 12,9 km/h (3 Bft) 97,87 %
22.01.2023 07:06 -0,4 C -1,1 C -2,8 C 95 % 1031,2 hPa 0,0 l/m 0 min 0 min 0 W/m 9,7 km/h (2 Bft) 96,61 %
22.01.2023 07:08 -0,4 C -1,1 C -2,8 C 95 % 1031,2 hPa 0,0 l/m 0 min 0 min 0 W/m 16,1 km/h (3 Bft) 94,29 %
22.01.2023 07:10 -0,4 C -1,1 C -2,8 C 95 % 1031,2 hPa 0,0 l/m 0 min 0 min 0 W/m 9,7 km/h (2 Bft) 97,87 %
22.01.2023 07:12 -0,4 C -1,1 C -2,8 C 95 % 1031,2 hPa 0,0 l/m 0 min 0 min 0 W/m 12,9 km/h (3 Bft) 97,87 %
22.01.2023 07:14 -0,4 C -1,1 C -2,8 C 95 % 1031,2 hPa 0,0 l/m 0 min 0 min 0 W/m 12,9 km/h (3 Bft) 97,83 %
22.01.2023 07:16 -0,4 C -1,1 C -2,8 C 95 % 1031,2 hPa 0,0 l/m 0 min 0 min 0 W/m 16,1 km/h (3 Bft) 95,74 %
22.01.2023 07:18 -0,4 C -1,1 C -2,8 C 95 % 1031,2 hPa 0,0 l/m 0 min 0 min 0 W/m 16,1 km/h (3 Bft) 95,74 %
22.01.2023 07:20 -0,4 C -1,1 C -2,8 C 95 % 1031,3 hPa 0,0 l/m 0 min 0 min 0 W/m 12,9 km/h (3 Bft) 97,87 %
22.01.2023 07:22 -0,4 C -1,1 C -2,8 C 95 % 1031,2 hPa 0,0 l/m 0 min 0 min 0 W/m 12,9 km/h (3 Bft) 97,87 %
22.01.2023 07:24 -0,4 C -1,1 C -2,8 C 95 % 1031,2 hPa 0,0 l/m 0 min 0 min 0 W/m 12,9 km/h (3 Bft) 100,00 %
22.01.2023 07:26 -0,4 C -1,1 C -2,8 C 95 % 1031,2 hPa 0,0 l/m 0 min 0 min 0 W/m 12,9 km/h (3 Bft) 94,87 %
22.01.2023 07:28 -0,3 C -1,1 C -2,8 C 95 % 1031,2 hPa 0,0 l/m 0 min 0 min 0 W/m 9,7 km/h (2 Bft) 93,48 %
22.01.2023 07:30 -0,3 C -1,1 C -2,8 C 95 % 1031,2 hPa 0,0 l/m 0 min 0 min 0 W/m 16,1 km/h (3 Bft) 100,00 %
22.01.2023 07:32 -0,3 C -1,1 C -2,8 C 95 % 1031,2 hPa 0,0 l/m 0 min 0 min 0 W/m 16,1 km/h (3 Bft) 100,00 %
22.01.2023 07:34 -0,3 C -1,1 C -2,8 C 95 % 1031,2 hPa 0,0 l/m 0 min 0 min 0 W/m 12,9 km/h (3 Bft) 100,00 %
22.01.2023 07:36 -0,3 C -1,1 C -2,8 C 95 % 1031,2 hPa 0,0 l/m 0 min 0 min 0 W/m 16,1 km/h (3 Bft) 97,87 %
22.01.2023 07:38 -0,3 C -1,1 C -2,8 C 95 % 1031,2 hPa 0,0 l/m 0 min 0 min 0 W/m 9,7 km/h (2 Bft) 95,74 %
22.01.2023 07:40 -0,3 C -0,6 C -2,8 C 95 % 1031,3 hPa 0,0 l/m 0 min 0 min 0 W/m 9,7 km/h (2 Bft) 100,00 %
22.01.2023 07:42 -0,3 C -0,6 C -2,8 C 95 % 1031,3 hPa 0,0 l/m 0 min 0 min 0 W/m 6,4 km/h (2 Bft) 100,00 %
22.01.2023 07:44 -0,3 C -0,6 C -2,8 C 95 % 1031,3 hPa 0,0 l/m 0 min 0 min 0 W/m 12,9 km/h (3 Bft) 100,00 %
22.01.2023 07:46 -0,3 C -0,6 C -2,8 C 95 % 1031,3 hPa 0,0 l/m 0 min 0 min 0 W/m 19,3 km/h (3 Bft) 100,00 %
22.01.2023 07:48 -0,3 C -0,6 C -2,8 C 95 % 1031,3 hPa 0,0 l/m 0 min 0 min 0 W/m 9,7 km/h (2 Bft) 100,00 %
22.01.2023 07:50 -0,3 C -0,6 C -2,8 C 95 % 1031,3 hPa 0,0 l/m 0 min 0 min 0 W/m 16,1 km/h (3 Bft) 100,00 %
22.01.2023 07:52 -0,3 C -0,6 C -2,8 C 95 % 1031,3 hPa 0,0 l/m 0 min 0 min 0 W/m 9,7 km/h (2 Bft) 95,74 %
22.01.2023 07:54 -0,3 C -0,6 C -2,8 C 95 % 1031,3 hPa 0,0 l/m 0 min 0 min 0 W/m 6,4 km/h (2 Bft) 97,83 %
22.01.2023 07:56 -0,3 C -0,6 C -2,8 C 95 % 1031,3 hPa 0,0 l/m 0 min 0 min 0 W/m 12,9 km/h (3 Bft) 100,00 %
22.01.2023 07:58 -0,3 C -0,6 C -2,8 C 95 % 1031,3 hPa 0,0 l/m 0 min 0 min 0 W/m 12,9 km/h (3 Bft) 97,87 %
22.01.2023 08:00 -0,3 C -0,6 C -2,8 C 95 % 1031,3 hPa 0,0 l/m 0 min 0 min 0 W/m 6,4 km/h (2 Bft) 100,00 %
22.01.2023 08:02 -0,3 C -0,6 C -2,8 C 95 % 1031,3 hPa 0,0 l/m 0 min 0 min 0 W/m 12,9 km/h (3 Bft) 95,74 %
22.01.2023 08:04 -0,3 C -0,6 C -2,8 C 95 % 1031,4 hPa 0,0 l/m 0 min 0 min 0 W/m 16,1 km/h (3 Bft) 95,74 %
22.01.2023 08:06 -0,3 C -0,6 C -2,8 C 95 % 1031,3 hPa 0,0 l/m 0 min 0 min 0 W/m 9,7 km/h (2 Bft) 98,28 %
22.01.2023 08:08 -0,3 C -0,6 C -2,8 C 95 % 1031,4 hPa 0,0 l/m 0 min 0 min 0 W/m 9,7 km/h (2 Bft) 100,00 %
22.01.2023 08:10 -0,3 C -0,6 C -2,8 C 95 % 1031,4 hPa 0,0 l/m 0 min 0 min 0 W/m 9,7 km/h (2 Bft) 97,87 %
22.01.2023 08:12 -0,2 C -0,6 C -2,8 C 94 % 1031,4 hPa 0,0 l/m 0 min 0 min 0 W/m 9,7 km/h (2 Bft) 100,00 %
22.01.2023 08:14 -0,2 C -0,6 C -2,8 C 94 % 1031,3 hPa 0,0 l/m 0 min 0 min 0 W/m 16,1 km/h (3 Bft) 97,87 %
22.01.2023 08:16 -0,2 C -0,6 C -2,8 C 94 % 1031,4 hPa 0,0 l/m 0 min 0 min 0 W/m 16,1 km/h (3 Bft) 91,49 %
22.01.2023 08:18 -0,2 C -0,6 C -2,8 C 94 % 1031,4 hPa 0,0 l/m 0 min 0 min 0 W/m 9,7 km/h (2 Bft) 97,87 %
22.01.2023 08:20 -0,2 C -0,6 C -2,8 C 94 % 1031,4 hPa 0,0 l/m 0 min 0 min 0 W/m 19,3 km/h (3 Bft) 97,87 %
22.01.2023 08:22 -0,2 C -0,6 C -2,8 C 94 % 1031,5 hPa 0,0 l/m 0 min 0 min 0 W/m 16,1 km/h (3 Bft) 95,65 %
22.01.2023 08:24 -0,2 C -0,6 C -2,8 C 94 % 1031,5 hPa 0,0 l/m 0 min 0 min 0 W/m 12,9 km/h (3 Bft) 93,62 %
22.01.2023 08:26 -0,2 C -0,6 C -2,8 C 94 % 1031,5 hPa 0,0 l/m 0 min 0 min 0 W/m 12,9 km/h (3 Bft) 95,74 %
22.01.2023 08:28 -0,2 C -0,6 C -2,8 C 94 % 1031,5 hPa 0,0 l/m 0 min 0 min 0 W/m 9,7 km/h (2 Bft) 95,74 %
22.01.2023 08:30 -0,2 C -0,6 C -2,8 C 94 % 1031,6 hPa 0,0 l/m 0 min 0 min 0 W/m 12,9 km/h (3 Bft) 97,87 %
22.01.2023 08:32 -0,2 C -0,6 C -2,8 C 94 % 1031,5 hPa 0,0 l/m 0 min 0 min 0 W/m 12,9 km/h (3 Bft) 95,74 %
22.01.2023 08:34 -0,2 C -0,6 C -2,8 C 94 % 1031,6 hPa 0,0 l/m 0 min 0 min 0 W/m 12,9 km/h (3 Bft) 91,30 %
22.01.2023 08:36 -0,2 C -0,6 C -2,8 C 94 % 1031,6 hPa 0,0 l/m 0 min 0 min 0 W/m 12,9 km/h (3 Bft) 95,74 %
22.01.2023 08:38 -0,2 C -0,6 C -2,8 C 94 % 1031,6 hPa 0,0 l/m 0 min 0 min 0 W/m 16,1 km/h (3 Bft) 95,74 %
22.01.2023 08:40 -0,2 C -0,6 C -2,8 C 94 % 1031,6 hPa 0,0 l/m 0 min 0 min 0 W/m 16,1 km/h (3 Bft) 93,62 %
22.01.2023 08:42 -0,2 C -0,6 C -2,8 C 94 % 1031,6 hPa 0,0 l/m 0 min 0 min 0 W/m 12,9 km/h (3 Bft) 95,74 %
22.01.2023 08:44 -0,2 C -0,6 C -2,8 C 94 % 1031,6 hPa 0,0 l/m 0 min 0 min 3 W/m 9,7 km/h (2 Bft) 95,74 %
22.01.2023 08:46 -0,2 C -0,6 C -2,8 C 94 % 1031,6 hPa 0,0 l/m 0 min 0 min 5 W/m 12,9 km/h (3 Bft) 95,74 %
22.01.2023 08:48 -0,2 C -0,6 C -2,8 C 94 % 1031,6 hPa 0,0 l/m 0 min 0 min 5 W/m 16,1 km/h (3 Bft) 95,65 %
22.01.2023 08:50 -0,2 C -0,6 C -2,8 C 94 % 1031,6 hPa 0,0 l/m 0 min 0 min 5 W/m 16,1 km/h (3 Bft) 97,87 %
22.01.2023 08:52 -0,2 C -0,6 C -2,8 C 94 % 1031,7 hPa 0,0 l/m 0 min 0 min 7 W/m 12,9 km/h (3 Bft) 95,74 %
22.01.2023 08:54 -0,2 C -0,6 C -2,8 C 94 % 1031,7 hPa 0,0 l/m 0 min 0 min 7 W/m 12,9 km/h (3 Bft) 95,74 %
22.01.2023 08:56 -0,2 C -0,6 C -2,8 C 94 % 1031,6 hPa 0,0 l/m 0 min 0 min 8 W/m 12,9 km/h (3 Bft) 95,74 %
22.01.2023 08:58 -0,2 C -0,6 C -2,8 C 94 % 1031,7 hPa 0,0 l/m 0 min 0 min 9 W/m 19,3 km/h (3 Bft) 94,55 %
22.01.2023 09:00 -0,2 C -0,6 C -2,8 C 94 % 1031,7 hPa 0,0 l/m 0 min 0 min 11 W/m 6,4 km/h (2 Bft) 97,87 %
22.01.2023 09:02 -0,1 C -0,6 C -2,8 C 94 % 1031,7 hPa 0,0 l/m 0 min 0 min 12 W/m 6,4 km/h (2 Bft) 97,37 %
22.01.2023 09:04 -0,1 C -0,6 C -2,8 C 94 % 1031,7 hPa 0,0 l/m 0 min 0 min 14 W/m 16,1 km/h (3 Bft) 97,87 %
22.01.2023 09:08 -0,1 C -0,6 C -2,8 C 94 % 1031,8 hPa 0,0 l/m 0 min 0 min 14 W/m 12,9 km/h (3 Bft) 100,00 %
22.01.2023 09:10 -0,1 C -0,6 C -2,8 C 94 % 1031,7 hPa 0,0 l/m 0 min 0 min 15 W/m 9,7 km/h (2 Bft) 100,00 %
22.01.2023 09:12 -0,1 C -0,6 C -2,8 C 94 % 1031,8 hPa 0,0 l/m 0 min 0 min 14 W/m 16,1 km/h (3 Bft) 97,87 %
22.01.2023 09:14 -0,1 C -0,6 C -2,8 C 94 % 1031,8 hPa 0,0 l/m 0 min 0 min 12 W/m 9,7 km/h (2 Bft) 97,87 %
22.01.2023 09:16 -0,1 C -0,6 C -2,8 C 94 % 1031,8 hPa 0,0 l/m 0 min 0 min 12 W/m 6,4 km/h (2 Bft) 100,00 %
22.01.2023 09:18 -0,1 C -0,6 C -2,8 C 94 % 1031,9 hPa 0,0 l/m 0 min 0 min 13 W/m 9,7 km/h (2 Bft) 100,00 %
22.01.2023 09:20 -0,1 C -0,6 C -2,8 C 94 % 1031,9 hPa 0,0 l/m 0 min 0 min 14 W/m 16,1 km/h (3 Bft) 100,00 %
22.01.2023 09:22 -0,1 C -0,6 C -2,8 C 94 % 1031,9 hPa 0,0 l/m 0 min 0 min 14 W/m 6,4 km/h (2 Bft) 100,00 %
22.01.2023 09:24 -0,1 C -0,6 C -2,8 C 94 % 1031,9 hPa 0,0 l/m 0 min 0 min 13 W/m 12,9 km/h (3 Bft) 97,87 %
22.01.2023 09:26 -0,1 C -0,6 C -2,8 C 94 % 1031,9 hPa 0,0 l/m 0 min 0 min 12 W/m 16,1 km/h (3 Bft) 97,87 %
22.01.2023 09:28 -0,1 C -0,6 C -2,8 C 94 % 1031,9 hPa 0,0 l/m 0 min 0 min 12 W/m 19,3 km/h (3 Bft) 100,00 %
22.01.2023 09:30 -0,1 C -0,6 C -2,8 C 94 % 1032,0 hPa 0,0 l/m 0 min 0 min 12 W/m 9,7 km/h (2 Bft) 100,00 %
22.01.2023 09:32 -0,1 C -0,6 C -2,8 C 94 % 1032,0 hPa 0,0 l/m 0 min 0 min 13 W/m 9,7 km/h (2 Bft) 95,74 %
22.01.2023 09:34 -0,1 C -0,6 C -2,8 C 94 % 1032,0 hPa 0,0 l/m 0 min 0 min 16 W/m 16,1 km/h (3 Bft) 97,87 %
22.01.2023 09:36 -0,1 C -0,6 C -2,8 C 94 % 1032,0 hPa 0,0 l/m 0 min 0 min 18 W/m 16,1 km/h (3 Bft) 95,74 %
22.01.2023 09:38 -0,1 C -0,6 C -2,2 C 94 % 1032,0 hPa 0,0 l/m 0 min 0 min 19 W/m 12,9 km/h (3 Bft) 91,49 %
22.01.2023 09:40 -0,1 C -0,6 C -2,2 C 94 % 1032,0 hPa 0,0 l/m 0 min 0 min 19 W/m 6,4 km/h (2 Bft) 97,87 %
22.01.2023 09:42 -0,1 C -0,6 C -2,2 C 94 % 1032,0 hPa 0,0 l/m 0 min 0 min 18 W/m 9,7 km/h (2 Bft) 97,83 %
22.01.2023 09:44 0,0 C -0,6 C -2,2 C 94 % 1032,0 hPa 0,0 l/m 0 min 0 min 18 W/m 9,7 km/h (2 Bft) 97,87 %
22.01.2023 09:46 0,0 C -0,6 C -2,2 C 94 % 1032,0 hPa 0,0 l/m 0 min 0 min 18 W/m 16,1 km/h (3 Bft) 97,87 %
22.01.2023 09:48 0,0 C -0,6 C -2,2 C 94 % 1032,0 hPa 0,0 l/m 0 min 0 min 20 W/m 6,4 km/h (2 Bft) 97,87 %
22.01.2023 09:50 0,0 C -0,6 C -2,2 C 94 % 1032,1 hPa 0,0 l/m 0 min 0 min 25 W/m 22,5 km/h (4 Bft) 97,87 %
22.01.2023 09:52 0,0 C 0,0 C -2,2 C 94 % 1032,0 hPa 0,0 l/m 0 min 0 min 26 W/m 12,9 km/h (3 Bft) 97,87 %
22.01.2023 09:54 0,0 C 0,0 C -2,2 C 94 % 1032,0 hPa 0,0 l/m 0 min 0 min 26 W/m 9,7 km/h (2 Bft) 50,00 %
22.01.2023 09:56 0,0 C 0,0 C -2,2 C 94 % 1032,0 hPa 0,0 l/m 0 min 0 min 29 W/m 16,1 km/h (3 Bft) 97,83 %
22.01.2023 09:58 0,1 C 0,0 C -2,2 C 94 % 1032,0 hPa 0,0 l/m 0 min 0 min 27 W/m 19,3 km/h (3 Bft) 97,87 %
22.01.2023 10:00 0,1 C 0,0 C -2,2 C 94 % 1032,0 hPa 0,0 l/m 0 min 0 min 27 W/m 16,1 km/h (3 Bft) 97,87 %
22.01.2023 10:02 0,1 C 0,0 C -2,2 C 94 % 1032,0 hPa 0,0 l/m 0 min 0 min 29 W/m 9,7 km/h (2 Bft) 97,87 %
22.01.2023 10:04 0,1 C 0,0 C -2,2 C 94 % 1032,0 hPa 0,0 l/m 0 min 0 min 26 W/m 12,9 km/h (3 Bft) 97,87 %
22.01.2023 10:06 0,1 C 0,0 C -2,2 C 94 % 1032,0 hPa 0,0 l/m 0 min 0 min 25 W/m 9,7 km/h (2 Bft) 95,74 %
22.01.2023 10:08 0,1 C 0,0 C -2,2 C 94 % 1032,0 hPa 0,0 l/m 0 min 0 min 24 W/m 6,4 km/h (2 Bft) 97,87 %
22.01.2023 10:10 0,1 C 0,0 C -2,2 C 94 % 1032,0 hPa 0,0 l/m 0 min 0 min 25 W/m 19,3 km/h (3 Bft) 97,83 %
22.01.2023 10:12 0,1 C 0,0 C -2,2 C 94 % 1031,9 hPa 0,0 l/m 0 min 0 min 26 W/m 16,1 km/h (3 Bft) 93,62 %
22.01.2023 10:14 0,1 C 0,0 C -2,2 C 94 % 1032,0 hPa 0,0 l/m 0 min 0 min 25 W/m 16,1 km/h (3 Bft) 95,74 %
22.01.2023 10:16 0,1 C 0,0 C -2,2 C 94 % 1032,0 hPa 0,0 l/m 0 min 0 min 25 W/m 9,7 km/h (2 Bft) 95,74 %
22.01.2023 10:18 0,1 C 0,0 C -2,2 C 94 % 1031,9 hPa 0,0 l/m 0 min 0 min 27 W/m 6,4 km/h (2 Bft) 95,74 %
22.01.2023 10:20 0,1 C 0,0 C -2,2 C 94 % 1032,0 hPa 0,0 l/m 0 min 0 min 27 W/m 12,9 km/h (3 Bft) 97,87 %
22.01.2023 10:22 0,1 C 0,0 C -2,2 C 94 % 1032,0 hPa 0,0 l/m 0 min 0 min 26 W/m 6,4 km/h (2 Bft) 95,74 %
22.01.2023 10:24 0,1 C 0,0 C -2,2 C 94 % 1031,9 hPa 0,0 l/m 0 min 0 min 25 W/m 16,1 km/h (3 Bft) 97,83 %
22.01.2023 10:26 0,1 C 0,0 C -2,2 C 94 % 1032,0 hPa 0,0 l/m 0 min 0 min 26 W/m 9,7 km/h (2 Bft) 97,87 %
22.01.2023 10:28 0,1 C 0,0 C -2,2 C 94 % 1032,0 hPa 0,0 l/m 0 min 0 min 27 W/m 9,7 km/h (2 Bft) 93,62 %
22.01.2023 10:30 0,1 C 0,0 C -2,2 C 94 % 1032,0 hPa 0,0 l/m 0 min 0 min 30 W/m 12,9 km/h (3 Bft) 95,74 %
22.01.2023 10:32 0,1 C 0,0 C -2,2 C 94 % 1032,0 hPa 0,0 l/m 0 min 0 min 31 W/m 12,9 km/h (3 Bft) 97,87 %
22.01.2023 10:34 0,1 C 0,0 C -2,2 C 94 % 1032,1 hPa 0,0 l/m 0 min 0 min 31 W/m 16,1 km/h (3 Bft) 97,87 %
22.01.2023 10:36 0,1 C 0,0 C -2,2 C 94 % 1032,1 hPa 0,0 l/m 0 min 0 min 28 W/m 12,9 km/h (3 Bft) 95,74 %
22.01.2023 10:38 0,1 C 0,0 C -2,2 C 94 % 1032,1 hPa 0,0 l/m 0 min 0 min 28 W/m 9,7 km/h (2 Bft) 97,83 %
22.01.2023 10:40 0,1 C 0,0 C -2,2 C 94 % 1032,2 hPa 0,0 l/m 0 min 0 min 31 W/m 12,9 km/h (3 Bft) 97,87 %
22.01.2023 10:42 0,2 C 0,0 C -2,2 C 94 % 1032,1 hPa 0,0 l/m 0 min 0 min 30 W/m 12,9 km/h (3 Bft) 93,62 %
22.01.2023 10:44 0,2 C 0,0 C -2,2 C 94 % 1032,2 hPa 0,0 l/m 0 min 0 min 28 W/m 12,9 km/h (3 Bft) 97,87 %
22.01.2023 10:46 0,2 C 0,0 C -2,2 C 94 % 1032,2 hPa 0,0 l/m 0 min 0 min 28 W/m 12,9 km/h (3 Bft) 93,62 %
22.01.2023 10:48 0,2 C 0,0 C -2,2 C 94 % 1032,2 hPa 0,0 l/m 0 min 0 min 32 W/m 19,3 km/h (3 Bft) 100,00 %
22.01.2023 10:50 0,2 C 0,0 C -2,2 C 94 % 1032,2 hPa 0,0 l/m 0 min 0 min 31 W/m 12,9 km/h (3 Bft) 100,00 %
22.01.2023 10:52 0,2 C 0,0 C -2,2 C 94 % 1032,2 hPa 0,0 l/m 0 min 0 min 32 W/m 19,3 km/h (3 Bft) 97,87 %
22.01.2023 10:54 0,2 C 0,0 C -2,2 C 94 % 1032,3 hPa 0,0 l/m 0 min 0 min 33 W/m 12,9 km/h (3 Bft) 97,87 %
22.01.2023 10:57 0,2 C 0,0 C -2,2 C 94 % 1032,2 hPa 0,0 l/m 0 min 0 min 43 W/m 9,7 km/h (2 Bft) 95,83 %
22.01.2023 10:58 0,2 C 0,0 C -2,2 C 94 % 1032,2 hPa 0,0 l/m 0 min 0 min 50 W/m 9,7 km/h (2 Bft) 100,00 %
22.01.2023 11:00 0,2 C 0,0 C -2,2 C 94 % 1032,3 hPa 0,0 l/m 0 min 0 min 47 W/m 19,3 km/h (3 Bft) 100,00 %
22.01.2023 11:02 0,2 C 0,0 C -2,2 C 94 % 1032,2 hPa 0,0 l/m 0 min 0 min 50 W/m 9,7 km/h (2 Bft) 97,06 %
22.01.2023 11:04 0,2 C 0,0 C -2,2 C 94 % 1032,2 hPa 0,0 l/m 0 min 0 min 57 W/m 12,9 km/h (3 Bft) 97,87 %
22.01.2023 11:06 0,2 C 0,0 C -2,2 C 94 % 1032,2 hPa 0,0 l/m 0 min 0 min 62 W/m 12,9 km/h (3 Bft) 98,33 %
22.01.2023 11:08 0,2 C 0,0 C -2,2 C 94 % 1032,2 hPa 0,0 l/m 0 min 0 min 70 W/m 3,2 km/h (1 Bft) 97,14 %
22.01.2023 11:10 0,3 C 0,0 C -2,2 C 94 % 1032,2 hPa 0,0 l/m 0 min 0 min 80 W/m 9,7 km/h (2 Bft) 97,87 %
22.01.2023 11:12 0,3 C 0,6 C -2,2 C 94 % 1032,1 hPa 0,0 l/m 0 min 0 min 84 W/m 9,7 km/h (2 Bft) 97,92 %
22.01.2023 11:14 0,3 C 0,6 C -2,2 C 94 % 1032,2 hPa 0,0 l/m 0 min 0 min 85 W/m 12,9 km/h (3 Bft) 97,87 %
22.01.2023 11:16 0,3 C 0,6 C -2,2 C 94 % 1032,1 hPa 0,0 l/m 0 min 0 min 85 W/m 9,7 km/h (2 Bft) 97,83 %
22.01.2023 11:18 0,4 C 0,6 C -2,2 C 94 % 1032,1 hPa 0,0 l/m 0 min 0 min 82 W/m 12,9 km/h (3 Bft) 95,74 %
22.01.2023 11:20 0,4 C 0,6 C -2,2 C 94 % 1032,1 hPa 0,0 l/m 0 min 0 min 79 W/m 9,7 km/h (2 Bft) 95,74 %
22.01.2023 11:22 0,4 C 0,6 C -1,7 C 94 % 1032,1 hPa 0,0 l/m 0 min 0 min 78 W/m 6,4 km/h (2 Bft) 95,74 %
22.01.2023 11:24 0,5 C 0,6 C -1,7 C 94 % 1032,1 hPa 0,0 l/m 0 min 0 min 77 W/m 12,9 km/h (3 Bft) 97,87 %
22.01.2023 11:26 0,5 C 0,6 C -1,7 C 94 % 1032,1 hPa 0,0 l/m 0 min 0 min 78 W/m 12,9 km/h (3 Bft) 97,87 %
22.01.2023 11:28 0,6 C 0,6 C -1,7 C 94 % 1032,0 hPa 0,0 l/m 0 min 0 min 79 W/m 9,7 km/h (2 Bft) 93,62 %
22.01.2023 11:30 0,6 C 0,6 C -1,7 C 94 % 1032,0 hPa 0,0 l/m 0 min 0 min 81 W/m 12,9 km/h (3 Bft) 97,83 %
22.01.2023 11:32 0,6 C 0,6 C -1,7 C 94 % 1032,0 hPa 0,0 l/m 0 min 0 min 86 W/m 9,7 km/h (2 Bft) 97,87 %
22.01.2023 11:34 0,6 C 0,6 C -1,7 C 94 % 1031,9 hPa 0,0 l/m 0 min 0 min 89 W/m 6,4 km/h (2 Bft) 95,74 %
22.01.2023 11:36 0,6 C 0,6 C -1,7 C 94 % 1031,9 hPa 0,0 l/m 0 min 0 min 96 W/m 12,9 km/h (3 Bft) 97,87 %
22.01.2023 11:38 0,6 C 0,6 C -1,7 C 94 % 1031,9 hPa 0,0 l/m 0 min 0 min 99 W/m 16,1 km/h (3 Bft) 100,00 %
22.01.2023 11:40 0,6 C 0,6 C -1,7 C 94 % 1031,8 hPa 0,0 l/m 0 min 0 min 82 W/m 12,9 km/h (3 Bft) 95,74 %
22.01.2023 11:42 0,6 C 0,6 C -1,7 C 94 % 1031,9 hPa 0,0 l/m 0 min 0 min 68 W/m 9,7 km/h (2 Bft) 97,87 %
22.01.2023 11:44 0,6 C 0,6 C -1,7 C 94 % 1031,9 hPa 0,0 l/m 0 min 0 min 63 W/m 9,7 km/h (2 Bft) 100,00 %
22.01.2023 11:46 0,6 C 0,6 C -1,7 C 94 % 1031,8 hPa 0,0 l/m 0 min 0 min 64 W/m 12,9 km/h (3 Bft) 100,00 %
22.01.2023 11:48 0,6 C 0,6 C -1,7 C 94 % 1031,9 hPa 0,0 l/m 0 min 0 min 65 W/m 12,9 km/h (3 Bft) 97,87 %
22.01.2023 11:50 0,6 C 0,6 C -1,7 C 94 % 1031,9 hPa 0,0 l/m 0 min 0 min 61 W/m 9,7 km/h (2 Bft) 100,00 %
22.01.2023 11:52 0,6 C 0,6 C -1,7 C 94 % 1032,0 hPa 0,0 l/m 0 min 0 min 61 W/m 9,7 km/h (2 Bft) 100,00 %
22.01.2023 11:54 0,6 C 0,6 C -1,7 C 94 % 1032,0 hPa 0,0 l/m 0 min 0 min 62 W/m 12,9 km/h (3 Bft) 100,00 %
22.01.2023 11:56 0,6 C 0,6 C -1,7 C 94 % 1032,0 hPa 0,0 l/m 0 min 0 min 74 W/m 16,1 km/h (3 Bft) 97,87 %
22.01.2023 11:58 0,7 C 0,6 C -1,7 C 94 % 1031,9 hPa 0,0 l/m 0 min 0 min 77 W/m 16,1 km/h (3 Bft) 100,00 %
22.01.2023 12:00 0,7 C 0,6 C -1,7 C 94 % 1031,9 hPa 0,0 l/m 0 min 0 min 83 W/m 12,9 km/h (3 Bft) 100,00 %
22.01.2023 12:02 0,7 C 0,6 C -1,7 C 94 % 1031,9 hPa 0,0 l/m 0 min 0 min 102 W/m 12,9 km/h (3 Bft) 100,00 %
22.01.2023 12:04 0,7 C 1,1 C -1,7 C 94 % 1031,9 hPa 0,0 l/m 0 min 0 min 100 W/m 12,9 km/h (3 Bft) 100,00 %
22.01.2023 12:08 0,7 C 1,1 C -1,7 C 94 % 1031,8 hPa 0,0 l/m 0 min 0 min 87 W/m 9,7 km/h (2 Bft) 95,74 %
22.01.2023 12:10 0,8 C 1,1 C -1,7 C 94 % 1031,8 hPa 0,0 l/m 0 min 0 min 86 W/m 3,2 km/h (1 Bft) 95,65 %
22.01.2023 12:12 0,8 C 1,1 C -1,7 C 94 % 1031,8 hPa 0,0 l/m 0 min 0 min 87 W/m 9,7 km/h (2 Bft) 97,87 %
22.01.2023 12:14 0,8 C 1,1 C -1,7 C 94 % 1031,9 hPa 0,0 l/m 0 min 0 min 103 W/m 9,7 km/h (2 Bft) 61,70 %
22.01.2023 12:16 0,8 C 1,1 C -1,7 C 94 % 1031,9 hPa 0,0 l/m 0 min 0 min 100 W/m 16,1 km/h (3 Bft) 89,19 %
22.01.2023 12:18 0,8 C 1,1 C -1,7 C 94 % 1031,9 hPa 0,0 l/m 0 min 0 min 96 W/m 16,1 km/h (3 Bft) 97,87 %
22.01.2023 12:20 0,8 C 1,1 C -1,7 C 94 % 1031,8 hPa 0,0 l/m 0 min 0 min 99 W/m 12,9 km/h (3 Bft) 97,87 %
22.01.2023 12:22 0,8 C 1,1 C -1,7 C 94 % 1031,8 hPa 0,0 l/m 0 min 0 min 96 W/m 16,1 km/h (3 Bft) 95,74 %
22.01.2023 12:24 0,9 C 1,1 C -1,7 C 94 % 1031,8 hPa 0,0 l/m 0 min 0 min 91 W/m 12,9 km/h (3 Bft) 95,65 %
22.01.2023 12:26 0,9 C 1,1 C -1,7 C 94 % 1031,8 hPa 0,0 l/m 0 min 0 min 87 W/m 9,7 km/h (2 Bft) 93,62 %
22.01.2023 12:28 0,9 C 1,1 C -1,1 C 94 % 1031,8 hPa 0,0 l/m 0 min 0 min 85 W/m 6,4 km/h (2 Bft) 95,74 %
22.01.2023 12:30 0,9 C 1,1 C -1,7 C 94 % 1031,8 hPa 0,0 l/m 0 min 0 min 80 W/m 16,1 km/h (3 Bft) 95,74 %
22.01.2023 12:32 0,9 C 1,1 C -1,7 C 94 % 1031,8 hPa 0,0 l/m 0 min 0 min 68 W/m 6,4 km/h (2 Bft) 95,74 %
22.01.2023 12:34 0,9 C 1,1 C -1,7 C 94 % 1031,8 hPa 0,0 l/m 0 min 0 min 76 W/m 12,9 km/h (3 Bft) 93,62 %
22.01.2023 12:36 0,9 C 1,1 C -1,7 C 94 % 1031,8 hPa 0,0 l/m 0 min 0 min 73 W/m 6,4 km/h (2 Bft) 95,74 %
22.01.2023 12:38 0,9 C 1,1 C -1,7 C 94 % 1031,8 hPa 0,0 l/m 0 min 0 min 71 W/m 16,1 km/h (3 Bft) 95,65 %
22.01.2023 12:40 0,9 C 1,1 C -1,7 C 94 % 1031,8 hPa 0,0 l/m 0 min 0 min 71 W/m 9,7 km/h (2 Bft) 93,62 %
22.01.2023 12:42 0,9 C 1,1 C -1,7 C 94 % 1031,8 hPa 0,0 l/m 0 min 0 min 75 W/m 6,4 km/h (2 Bft) 95,74 %
22.01.2023 12:44 0,9 C 1,1 C -1,7 C 94 % 1031,8 hPa 0,0 l/m 0 min 0 min 65 W/m 12,9 km/h (3 Bft) 97,87 %
22.01.2023 12:46 0,9 C 1,1 C -1,7 C 94 % 1031,8 hPa 0,0 l/m 0 min 0 min 55 W/m 9,7 km/h (2 Bft) 97,87 %
22.01.2023 12:48 0,9 C 1,1 C -1,7 C 94 % 1031,8 hPa 0,0 l/m 0 min 0 min 51 W/m 9,7 km/h (2 Bft) 97,87 %
22.01.2023 12:50 0,9 C 1,1 C -1,7 C 94 % 1031,8 hPa 0,0 l/m 0 min 0 min 50 W/m 6,4 km/h (2 Bft) 95,74 %
22.01.2023 12:52 0,9 C 0,6 C -1,7 C 94 % 1031,8 hPa 0,0 l/m 0 min 0 min 52 W/m 9,7 km/h (2 Bft) 97,83 %
22.01.2023 12:54 1,0 C 0,6 C -1,7 C 94 % 1031,8 hPa 0,0 l/m 0 min 0 min 49 W/m 12,9 km/h (3 Bft) 97,87 %
22.01.2023 12:56 0,9 C 0,6 C -1,7 C 94 % 1031,8 hPa 0,0 l/m 0 min 0 min 58 W/m 12,9 km/h (3 Bft) 97,87 %
22.01.2023 12:58 0,9 C 0,6 C -1,7 C 94 % 1031,8 hPa 0,0 l/m 0 min 0 min 56 W/m 9,7 km/h (2 Bft) 97,87 %
22.01.2023 13:00 0,9 C 1,1 C -1,7 C 94 % 1031,8 hPa 0,0 l/m 0 min 0 min 57 W/m 12,9 km/h (3 Bft) 97,87 %
22.01.2023 13:02 0,9 C 1,1 C -1,7 C 94 % 1031,8 hPa 0,0 l/m 0 min 0 min 58 W/m 16,1 km/h (3 Bft) 93,62 %
22.01.2023 13:04 0,9 C 1,1 C -1,7 C 94 % 1031,9 hPa 0,0 l/m 0 min 0 min 53 W/m 12,9 km/h (3 Bft) 97,83 %
22.01.2023 13:06 0,9 C 1,1 C -1,7 C 94 % 1031,9 hPa 0,0 l/m 0 min 0 min 53 W/m 12,9 km/h (3 Bft) 96,30 %
22.01.2023 13:08 0,9 C 1,1 C -1,7 C 94 % 1031,8 hPa 0,0 l/m 0 min 0 min 51 W/m 12,9 km/h (3 Bft) 97,87 %
22.01.2023 13:10 1,0 C 1,1 C -1,7 C 94 % 1031,9 hPa 0,0 l/m 0 min 0 min 45 W/m 12,9 km/h (3 Bft) 97,37 %
22.01.2023 13:12 0,9 C 0,6 C -1,7 C 94 % 1031,9 hPa 0,0 l/m 0 min 0 min 42 W/m 6,4 km/h (2 Bft) 100,00 %
22.01.2023 13:14 1,0 C 0,6 C -1,7 C 94 % 1031,9 hPa 0,0 l/m 0 min 0 min 39 W/m 9,7 km/h (2 Bft) 95,74 %
22.01.2023 13:16 1,0 C 0,6 C -1,7 C 94 % 1032,0 hPa 0,0 l/m 0 min 0 min 36 W/m 6,4 km/h (2 Bft) 97,83 %
22.01.2023 13:18 1,0 C 0,6 C -1,7 C 94 % 1032,0 hPa 0,0 l/m 0 min 0 min 34 W/m 6,4 km/h (2 Bft) 95,74 %
22.01.2023 13:20 1,0 C 0,6 C -1,7 C 94 % 1031,9 hPa 0,0 l/m 0 min 0 min 34 W/m 6,4 km/h (2 Bft) 100,00 %
22.01.2023 13:22 1,0 C 0,6 C -1,7 C 94 % 1031,9 hPa 0,0 l/m 0 min 0 min 35 W/m 16,1 km/h (3 Bft) 100,00 %
22.01.2023 13:24 1,0 C 0,6 C -1,7 C 94 % 1031,8 hPa 0,0 l/m 0 min 0 min 37 W/m 12,9 km/h (3 Bft) 100,00 %
22.01.2023 13:26 1,0 C 0,6 C -1,7 C 94 % 1031,8 hPa 0,0 l/m 0 min 0 min 36 W/m 12,9 km/h (3 Bft) 97,87 %
22.01.2023 13:28 0,9 C 0,6 C -1,7 C 94 % 1031,9 hPa 0,0 l/m 0 min 0 min 34 W/m 9,7 km/h (2 Bft) 100,00 %
22.01.2023 13:30 0,9 C 0,6 C -1,7 C 94 % 1031,8 hPa 0,0 l/m 0 min 0 min 38 W/m 9,7 km/h (2 Bft) 95,65 %
22.01.2023 13:32 0,9 C 0,6 C -1,7 C 94 % 1031,8 hPa 0,0 l/m 0 min 0 min 43 W/m 6,4 km/h (2 Bft) 100,00 %
22.01.2023 13:34 0,9 C 0,6 C -1,7 C 94 % 1031,7 hPa 0,0 l/m 0 min 0 min 47 W/m 19,3 km/h (3 Bft) 100,00 %
22.01.2023 13:36 0,9 C 0,6 C -1,7 C 94 % 1031,7 hPa 0,0 l/m 0 min 0 min 45 W/m 16,1 km/h (3 Bft) 100,00 %
22.01.2023 13:38 0,9 C 0,6 C -1,7 C 94 % 1031,7 hPa 0,0 l/m 0 min 0 min 46 W/m 12,9 km/h (3 Bft) 97,87 %
22.01.2023 13:40 0,9 C 0,6 C -1,7 C 94 % 1031,7 hPa 0,0 l/m 0 min 0 min 46 W/m 16,1 km/h (3 Bft) 97,87 %
22.01.2023 13:42 0,9 C 0,6 C -1,7 C 94 % 1031,7 hPa 0,0 l/m 0 min 0 min 43 W/m 12,9 km/h (3 Bft) 97,87 %
22.01.2023 13:44 0,9 C 0,6 C -1,7 C 94 % 1031,7 hPa 0,0 l/m 0 min 0 min 37 W/m 9,7 km/h (2 Bft) 97,83 %
22.01.2023 13:46 0,9 C 0,6 C -1,7 C 94 % 1031,7 hPa 0,0 l/m 0 min 0 min 33 W/m 12,9 km/h (3 Bft) 95,74 %
22.01.2023 13:48 0,9 C 0,6 C -1,7 C 94 % 1031,7 hPa 0,0 l/m 0 min 0 min 38 W/m 9,7 km/h (2 Bft) 97,87 %
22.01.2023 13:50 0,9 C 0,6 C -1,7 C 94 % 1031,7 hPa 0,0 l/m 0 min 0 min 42 W/m 12,9 km/h (3 Bft) 97,87 %
22.01.2023 13:52 0,9 C 0,6 C -1,7 C 94 % 1031,7 hPa 0,0 l/m 0 min 0 min 53 W/m 9,7 km/h (2 Bft) 97,87 %
22.01.2023 13:54 0,9 C 0,6 C -1,7 C 94 % 1031,7 hPa 0,0 l/m 0 min 0 min 56 W/m 12,9 km/h (3 Bft) 95,74 %
22.01.2023 13:56 0,9 C 1,1 C -1,7 C 94 % 1031,7 hPa 0,0 l/m 0 min 0 min 67 W/m 9,7 km/h (2 Bft) 97,87 %
22.01.2023 13:58 0,9 C 1,1 C -1,7 C 94 % 1031,7 hPa 0,0 l/m 0 min 0 min 70 W/m 16,1 km/h (3 Bft) 97,83 %
22.01.2023 14:00 0,9 C 1,1 C -1,7 C 94 % 1031,8 hPa 0,0 l/m 0 min 0 min 69 W/m 9,7 km/h (2 Bft) 97,87 %
22.01.2023 14:02 0,9 C 1,1 C -1,7 C 94 % 1031,8 hPa 0,0 l/m 0 min 0 min 65 W/m 9,7 km/h (2 Bft) 97,87 %
22.01.2023 14:04 1,0 C 1,1 C -1,7 C 94 % 1031,8 hPa 0,0 l/m 0 min 0 min 60 W/m 9,7 km/h (2 Bft) 93,62 %
22.01.2023 14:06 1,0 C 1,1 C -1,1 C 94 % 1031,7 hPa 0,0 l/m 0 min 0 min 59 W/m 9,7 km/h (2 Bft) 96,61 %
22.01.2023 14:08 1,0 C 1,1 C -1,7 C 94 % 1031,8 hPa 0,0 l/m 0 min 0 min 59 W/m 12,9 km/h (3 Bft) 97,14 %
22.01.2023 14:10 1,0 C 1,1 C -1,7 C 94 % 1031,7 hPa 0,0 l/m 0 min 0 min 54 W/m 12,9 km/h (3 Bft) 93,62 %
22.01.2023 14:12 1,1 C 1,1 C -1,7 C 94 % 1031,7 hPa 0,0 l/m 0 min 0 min 54 W/m 12,9 km/h (3 Bft) 93,48 %
22.01.2023 14:14 1,1 C 1,1 C -1,1 C 94 % 1031,8 hPa 0,0 l/m 0 min 0 min 49 W/m 12,9 km/h (3 Bft) 95,74 %
22.01.2023 14:16 1,1 C 1,1 C -1,7 C 94 % 1031,8 hPa 0,0 l/m 0 min 0 min 49 W/m 12,9 km/h (3 Bft) 95,74 %
22.01.2023 14:18 1,1 C 1,1 C -1,7 C 94 % 1031,8 hPa 0,0 l/m 0 min 0 min 51 W/m 16,1 km/h (3 Bft) 95,74 %
22.01.2023 14:20 1,1 C 1,1 C -1,7 C 94 % 1031,8 hPa 0,0 l/m 0 min 0 min 53 W/m 6,4 km/h (2 Bft) 95,74 %
22.01.2023 14:22 1,1 C 1,1 C -1,7 C 94 % 1031,8 hPa 0,0 l/m 0 min 0 min 52 W/m 16,1 km/h (3 Bft) 95,74 %
22.01.2023 14:24 1,1 C 1,1 C -1,7 C 94 % 1031,8 hPa 0,0 l/m 0 min 0 min 48 W/m 12,9 km/h (3 Bft) 95,65 %
22.01.2023 14:26 1,1 C 1,1 C -1,7 C 94 % 1031,8 hPa 0,0 l/m 0 min 0 min 52 W/m 12,9 km/h (3 Bft) 97,87 %
22.01.2023 14:28 1,1 C 1,1 C -1,7 C 94 % 1031,8 hPa 0,0 l/m 0 min 0 min 51 W/m 9,7 km/h (2 Bft) 97,87 %
22.01.2023 14:30 1,1 C 1,1 C -1,7 C 94 % 1031,8 hPa 0,0 l/m 0 min 0 min 52 W/m 9,7 km/h (2 Bft) 97,87 %
22.01.2023 14:32 1,1 C 1,1 C -1,7 C 94 % 1031,8 hPa 0,0 l/m 0 min 0 min 42 W/m 19,3 km/h (3 Bft) 97,87 %
22.01.2023 14:34 1,1 C 1,1 C -1,7 C 94 % 1031,8 hPa 0,0 l/m 0 min 0 min 36 W/m 12,9 km/h (3 Bft) 97,87 %
22.01.2023 14:36 1,1 C 1,1 C -1,7 C 94 % 1031,8 hPa 0,0 l/m 0 min 0 min 29 W/m 9,7 km/h (2 Bft) 97,87 %
22.01.2023 14:38 1,1 C 0,6 C -1,7 C 94 % 1031,9 hPa 0,0 l/m 0 min 0 min 26 W/m 16,1 km/h (3 Bft) 97,87 %
22.01.2023 14:40 1,1 C 0,6 C -1,7 C 94 % 1031,8 hPa 0,0 l/m 0 min 0 min 23 W/m 9,7 km/h (2 Bft) 100,00 %
22.01.2023 14:42 1,1 C 0,6 C -1,7 C 94 % 1031,8 hPa 0,0 l/m 0 min 0 min 27 W/m 12,9 km/h (3 Bft) 95,65 %
22.01.2023 14:44 1,1 C 0,6 C -1,7 C 94 % 1031,8 hPa 0,0 l/m 0 min 0 min 31 W/m 16,1 km/h (3 Bft) 100,00 %
22.01.2023 14:46 1,1 C 0,6 C -1,7 C 94 % 1031,8 hPa 0,0 l/m 0 min 0 min 28 W/m 19,3 km/h (3 Bft) 100,00 %
22.01.2023 14:48 1,1 C 0,6 C -1,7 C 94 % 1031,8 hPa 0,0 l/m 0 min 0 min 30 W/m 9,7 km/h (2 Bft) 100,00 %
22.01.2023 14:50 1,1 C 0,6 C -1,7 C 94 % 1031,8 hPa 0,0 l/m 0 min 0 min 33 W/m 16,1 km/h (3 Bft) 97,87 %
22.01.2023 14:52 1,1 C 0,6 C -1,7 C 94 % 1031,8 hPa 0,0 l/m 0 min 0 min 35 W/m 9,7 km/h (2 Bft) 100,00 %
22.01.2023 14:54 1,1 C 0,6 C -1,7 C 94 % 1031,8 hPa 0,0 l/m 0 min 0 min 38 W/m 9,7 km/h (2 Bft) 100,00 %
22.01.2023 14:56 1,1 C 0,6 C -1,7 C 94 % 1031,8 hPa 0,0 l/m 0 min 0 min 38 W/m 9,7 km/h (2 Bft) 95,74 %
22.01.2023 14:58 1,1 C 1,1 C -1,7 C 94 % 1031,8 hPa 0,0 l/m 0 min 0 min 37 W/m 12,9 km/h (3 Bft) 100,00 %
22.01.2023 15:00 1,1 C 1,1 C -1,7 C 94 % 1031,8 hPa 0,0 l/m 0 min 0 min 35 W/m 9,7 km/h (2 Bft) 100,00 %
22.01.2023 15:02 1,1 C 1,1 C -1,7 C 94 % 1031,8 hPa 0,0 l/m 0 min 0 min 32 W/m 9,7 km/h (2 Bft) 100,00 %
22.01.2023 15:04 1,1 C 0,6 C -1,7 C 94 % 1031,8 hPa 0,0 l/m 0 min 0 min 30 W/m 16,1 km/h (3 Bft) 100,00 %
22.01.2023 15:06 1,1 C 0,6 C -1,7 C 94 % 1031,9 hPa 0,0 l/m 0 min 0 min 29 W/m 6,4 km/h (2 Bft) 97,87 %
22.01.2023 15:08 1,1 C 1,1 C -1,7 C 94 % 1031,9 hPa 0,0 l/m 0 min 0 min 26 W/m 6,4 km/h (2 Bft) 100,00 %
22.01.2023 15:10 1,1 C 0,6 C -1,7 C 94 % 1032,0 hPa 0,0 l/m 0 min 0 min 25 W/m 16,1 km/h (3 Bft) 95,74 %
22.01.2023 15:12 1,1 C 0,6 C -1,7 C 94 % 1032,0 hPa 0,0 l/m 0 min 0 min 25 W/m 22,5 km/h (4 Bft) 97,87 %
22.01.2023 15:14 1,1 C 0,6 C -1,7 C 94 % 1032,0 hPa 0,0 l/m 0 min 0 min 24 W/m 9,7 km/h (2 Bft) 95,74 %
22.01.2023 15:16 1,1 C 0,6 C -1,7 C 94 % 1031,9 hPa 0,0 l/m 0 min 0 min 23 W/m 9,7 km/h (2 Bft) 100,00 %
22.01.2023 15:18 1,1 C 0,6 C -1,7 C 94 % 1032,0 hPa 0,0 l/m 0 min 0 min 22 W/m 6,4 km/h (2 Bft) 97,87 %
22.01.2023 15:20 1,1 C 0,6 C -1,7 C 94 % 1032,0 hPa 0,0 l/m 0 min 0 min 23 W/m 9,7 km/h (2 Bft) 97,83 %
22.01.2023 15:22 1,1 C 0,6 C -1,7 C 94 % 1032,0 hPa 0,0 l/m 0 min 0 min 21 W/m 9,7 km/h (2 Bft) 97,87 %
22.01.2023 15:24 1,1 C 0,6 C -1,7 C 94 % 1032,0 hPa 0,0 l/m 0 min 0 min 21 W/m 12,9 km/h (3 Bft) 97,87 %
22.01.2023 15:26 1,1 C 0,6 C -1,7 C 94 % 1032,0 hPa 0,0 l/m 0 min 0 min 23 W/m 9,7 km/h (2 Bft) 95,74 %
22.01.2023 15:28 1,1 C 0,6 C -1,7 C 94 % 1032,0 hPa 0,0 l/m 0 min 0 min 23 W/m 9,7 km/h (2 Bft) 97,87 %
22.01.2023 15:30 1,1 C 0,6 C -1,7 C 94 % 1032,0 hPa 0,0 l/m 0 min 0 min 22 W/m 9,7 km/h (2 Bft) 95,74 %
22.01.2023 15:32 1,1 C 0,6 C -1,7 C 94 % 1032,0 hPa 0,0 l/m 0 min 0 min 22 W/m 16,1 km/h (3 Bft) 97,87 %
22.01.2023 15:34 1,1 C 0,6 C -1,7 C 94 % 1032,0 hPa 0,0 l/m 0 min 0 min 23 W/m 9,7 km/h (2 Bft) 97,87 %
22.01.2023 15:36 1,1 C 0,6 C -1,7 C 94 % 1032,1 hPa 0,0 l/m 0 min 0 min 23 W/m 12,9 km/h (3 Bft) 97,92 %
22.01.2023 15:38 1,1 C 0,6 C -1,7 C 94 % 1032,1 hPa 0,0 l/m 0 min 0 min 21 W/m 16,1 km/h (3 Bft) 97,83 %
22.01.2023 15:40 1,1 C 0,6 C -1,7 C 94 % 1032,1 hPa 0,0 l/m 0 min 0 min 21 W/m 6,4 km/h (2 Bft) 97,87 %
22.01.2023 15:42 1,1 C 0,6 C -1,7 C 94 % 1032,1 hPa 0,0 l/m 0 min 0 min 22 W/m 9,7 km/h (2 Bft) 95,74 %
22.01.2023 15:44 1,1 C 0,6 C -1,7 C 94 % 1032,2 hPa 0,0 l/m 0 min 0 min 23 W/m 6,4 km/h (2 Bft) 97,87 %
22.01.2023 15:46 1,1 C 0,6 C -1,7 C 94 % 1032,2 hPa 0,0 l/m 0 min 0 min 24 W/m 12,9 km/h (3 Bft) 97,87 %
22.01.2023 15:48 1,1 C 0,6 C -1,7 C 94 % 1032,2 hPa 0,0 l/m 0 min 0 min 20 W/m 9,7 km/h (2 Bft) 97,87 %
22.01.2023 15:50 1,1 C 0,6 C -1,7 C 94 % 1032,3 hPa 0,0 l/m 0 min 0 min 19 W/m 9,7 km/h (2 Bft) 95,74 %
22.01.2023 15:52 1,1 C 0,6 C -1,7 C 94 % 1032,3 hPa 0,0 l/m 0 min 0 min 18 W/m 9,7 km/h (2 Bft) 97,83 %
22.01.2023 15:54 1,1 C 0,6 C -1,7 C 94 % 1032,3 hPa 0,0 l/m 0 min 0 min 15 W/m 9,7 km/h (2 Bft) 97,87 %
22.01.2023 15:56 1,1 C 0,6 C -1,7 C 94 % 1032,3 hPa 0,0 l/m 0 min 0 min 16 W/m 6,4 km/h (2 Bft) 97,87 %
22.01.2023 15:58 1,1 C 0,6 C -1,7 C 94 % 1032,4 hPa 0,0 l/m 0 min 0 min 16 W/m 6,4 km/h (2 Bft) 97,87 %
22.01.2023 16:00 1,1 C 0,6 C -1,7 C 94 % 1032,4 hPa 0,0 l/m 0 min 0 min 14 W/m 6,4 km/h (2 Bft) 95,74 %
22.01.2023 16:02 1,1 C 0,6 C -1,7 C 94 % 1032,3 hPa 0,0 l/m 0 min 0 min 16 W/m 16,1 km/h (3 Bft) 97,87 %
22.01.2023 16:04 1,1 C 0,6 C -1,7 C 94 % 1032,3 hPa 0,0 l/m 0 min 0 min 16 W/m 9,7 km/h (2 Bft) 95,74 %
22.01.2023 16:06 1,1 C 0,6 C -1,7 C 94 % 1032,3 hPa 0,0 l/m 0 min 0 min 13 W/m 12,9 km/h (3 Bft) 95,74 %
22.01.2023 16:08 1,1 C 0,6 C -1,7 C 94 % 1032,3 hPa 0,0 l/m 0 min 0 min 11 W/m 6,4 km/h (2 Bft) 97,87 %
22.01.2023 16:10 1,1 C 0,6 C -1,7 C 94 % 1032,4 hPa 0,0 l/m 0 min 0 min 11 W/m 3,2 km/h (1 Bft) 97,87 %
22.01.2023 16:12 1,1 C 0,6 C -1,7 C 94 % 1032,4 hPa 0,0 l/m 0 min 0 min 10 W/m 9,7 km/h (2 Bft) 97,87 %
22.01.2023 16:14 1,1 C 0,6 C -1,7 C 94 % 1032,4 hPa 0,0 l/m 0 min 0 min 8 W/m 6,4 km/h (2 Bft) 95,74 %
22.01.2023 16:16 1,1 C 0,6 C -1,7 C 94 % 1032,4 hPa 0,0 l/m 0 min 0 min 7 W/m 9,7 km/h (2 Bft) 93,62 %
22.01.2023 16:18 1,1 C 0,6 C -1,7 C 94 % 1032,4 hPa 0,0 l/m 0 min 0 min 7 W/m 12,9 km/h (3 Bft) 91,30 %
22.01.2023 16:20 1,1 C 0,6 C -1,7 C 94 % 1032,4 hPa 0,0 l/m 0 min 0 min 7 W/m 6,4 km/h (2 Bft) 93,62 %
22.01.2023 16:22 1,1 C 0,6 C -1,7 C 94 % 1032,5 hPa 0,0 l/m 0 min 0 min 7 W/m 12,9 km/h (3 Bft) 82,98 %
22.01.2023 16:24 1,1 C 0,6 C -1,7 C 94 % 1032,5 hPa 0,0 l/m 0 min 0 min 5 W/m 12,9 km/h (3 Bft) 57,89 %
22.01.2023 16:26 1,1 C 0,6 C -1,7 C 94 % 1032,5 hPa 0,0 l/m 0 min 0 min 5 W/m 12,9 km/h (3 Bft) 95,74 %
22.01.2023 16:28 1,1 C 0,6 C -1,7 C 94 % 1032,5 hPa 0,0 l/m 0 min 0 min 5 W/m 16,1 km/h (3 Bft) 95,74 %
22.01.2023 16:30 1,1 C 0,6 C -1,7 C 94 % 1032,5 hPa 0,0 l/m 0 min 0 min 5 W/m 6,4 km/h (2 Bft) 95,65 %
22.01.2023 16:32 1,1 C 0,6 C -1,7 C 94 % 1032,5 hPa 0,0 l/m 0 min 0 min 5 W/m 6,4 km/h (2 Bft) 93,62 %
22.01.2023 16:34 1,1 C 0,6 C -1,7 C 94 % 1032,6 hPa 0,0 l/m 0 min 0 min 4 W/m 9,7 km/h (2 Bft) 97,87 %
22.01.2023 16:36 1,1 C 0,6 C -1,7 C 94 % 1032,6 hPa 0,0 l/m 0 min 0 min 2 W/m 6,4 km/h (2 Bft) 97,87 %
22.01.2023 16:38 1,1 C 0,6 C -1,7 C 94 % 1032,5 hPa 0,0 l/m 0 min 0 min 2 W/m 12,9 km/h (3 Bft) 97,14 %
22.01.2023 16:40 1,1 C 0,6 C -1,7 C 94 % 1032,6 hPa 0,0 l/m 0 min 0 min 0 W/m 6,4 km/h (2 Bft) 93,62 %
22.01.2023 16:42 1,1 C 0,6 C -1,7 C 94 % 1032,6 hPa 0,0 l/m 0 min 0 min 0 W/m 12,9 km/h (3 Bft) 95,74 %
22.01.2023 16:44 1,1 C 0,6 C -1,7 C 94 % 1032,6 hPa 0,0 l/m 0 min 0 min 0 W/m 9,7 km/h (2 Bft) 100,00 %
22.01.2023 16:46 1,1 C 0,6 C -1,7 C 94 % 1032,6 hPa 0,0 l/m 0 min 0 min 0 W/m 6,4 km/h (2 Bft) 97,83 %
22.01.2023 16:48 1,1 C 0,6 C -1,7 C 94 % 1032,6 hPa 0,0 l/m 0 min 0 min 0 W/m 6,4 km/h (2 Bft) 97,87 %
22.01.2023 16:50 1,1 C 0,6 C -1,7 C 94 % 1032,6 hPa 0,0 l/m 0 min 0 min 0 W/m 6,4 km/h (2 Bft) 95,74 %
22.01.2023 16:52 1,1 C 0,6 C -1,7 C 94 % 1032,6 hPa 0,0 l/m 0 min 0 min 0 W/m 6,4 km/h (2 Bft) 98,00 %
22.01.2023 16:54 1,1 C 0,6 C -1,7 C 94 % 1032,6 hPa 0,0 l/m 0 min 0 min 0 W/m 12,9 km/h (3 Bft) 97,96 %
22.01.2023 16:56 1,0 C 0,6 C -1,7 C 94 % 1032,6 hPa 0,0 l/m 0 min 0 min 0 W/m 6,4 km/h (2 Bft) 97,87 %
22.01.2023 16:58 1,1 C 0,6 C -1,7 C 94 % 1032,6 hPa 0,0 l/m 0 min 0 min 0 W/m 12,9 km/h (3 Bft) 95,65 %
22.01.2023 17:00 1,0 C 0,6 C -1,7 C 94 % 1032,7 hPa 0,0 l/m 0 min 0 min 0 W/m 9,7 km/h (2 Bft) 97,87 %
22.01.2023 17:02 1,1 C 0,6 C -1,7 C 94 % 1032,7 hPa 0,0 l/m 0 min 0 min 0 W/m 9,7 km/h (2 Bft) 100,00 %
22.01.2023 17:04 1,1 C 0,6 C -1,7 C 94 % 1032,7 hPa 0,0 l/m 0 min 0 min 0 W/m 9,7 km/h (2 Bft) 100,00 %
22.01.2023 17:06 1,0 C 0,6 C -1,7 C 94 % 1032,7 hPa 0,0 l/m 0 min 0 min 0 W/m 9,7 km/h (2 Bft) 100,00 %
22.01.2023 17:08 1,0 C 0,6 C -1,7 C 94 % 1032,7 hPa 0,0 l/m 0 min 0 min 0 W/m 9,7 km/h (2 Bft) 97,87 %
22.01.2023 17:10 1,0 C 0,6 C -1,7 C 94 % 1032,7 hPa 0,0 l/m 0 min 0 min 0 W/m 6,4 km/h (2 Bft) 97,87 %
22.01.2023 17:12 1,0 C 0,6 C -1,7 C 94 % 1032,7 hPa 0,0 l/m 0 min 0 min 0 W/m 9,7 km/h (2 Bft) 100,00 %
22.01.2023 17:14 1,0 C 0,6 C -1,7 C 94 % 1032,6 hPa 0,0 l/m 0 min 0 min 0 W/m 9,7 km/h (2 Bft) 95,74 %
22.01.2023 17:16 1,0 C 0,6 C -1,7 C 94 % 1032,6 hPa 0,0 l/m 0 min 0 min 0 W/m 9,7 km/h (2 Bft) 100,00 %
22.01.2023 17:18 1,0 C 0,6 C -1,7 C 94 % 1032,6 hPa 0,0 l/m 0 min 0 min 0 W/m 12,9 km/h (3 Bft) 100,00 %
22.01.2023 17:20 1,0 C 0,6 C -1,7 C 94 % 1032,6 hPa 0,0 l/m 0 min 0 min 0 W/m 6,4 km/h (2 Bft) 97,87 %
22.01.2023 17:22 1,0 C 0,6 C -1,7 C 94 % 1032,6 hPa 0,0 l/m 0 min 0 min 0 W/m 6,4 km/h (2 Bft) 100,00 %
22.01.2023 17:24 1,0 C 0,6 C -1,7 C 94 % 1032,5 hPa 0,0 l/m 0 min 0 min 0 W/m 3,2 km/h (1 Bft) 97,83 %
22.01.2023 17:26 1,0 C 0,6 C -1,7 C 94 % 1032,5 hPa 0,0 l/m 0 min 0 min 0 W/m 9,7 km/h (2 Bft) 100,00 %
22.01.2023 17:28 1,0 C 0,6 C -1,7 C 94 % 1032,5 hPa 0,0 l/m 0 min 0 min 0 W/m 6,4 km/h (2 Bft) 100,00 %
22.01.2023 17:30 1,0 C 0,6 C -1,7 C 94 % 1032,6 hPa 0,0 l/m 0 min 0 min 0 W/m 9,7 km/h (2 Bft) 97,87 %
22.01.2023 17:32 1,0 C 0,6 C -1,7 C 94 % 1032,5 hPa 0,0 l/m 0 min 0 min 0 W/m 9,7 km/h (2 Bft) 100,00 %
22.01.2023 17:34 1,0 C 0,6 C -1,7 C 94 % 1032,5 hPa 0,0 l/m 0 min 0 min 0 W/m 3,2 km/h (1 Bft) 97,87 %
22.01.2023 17:36 1,0 C 0,6 C -1,7 C 94 % 1032,6 hPa 0,0 l/m 0 min 0 min 0 W/m 6,4 km/h (2 Bft) 100,00 %
22.01.2023 17:38 1,0 C 0,6 C -1,7 C 94 % 1032,5 hPa 0,0 l/m 0 min 0 min 0 W/m 3,2 km/h (1 Bft) 100,00 %
22.01.2023 17:43 1,0 C 0,6 C -1,7 C 94 % 1032,6 hPa 0,0 l/m 0 min 0 min 0 W/m 3,2 km/h (1 Bft) 100,00 %
22.01.2023 17:44 1,0 C 0,6 C -1,7 C 94 % 1032,6 hPa 0,0 l/m 0 min 0 min 0 W/m 0,0 km/h (0 Bft) 100,00 %
22.01.2023 17:46 1,0 C 0,6 C -1,7 C 94 % 1032,6 hPa 0,0 l/m 0 min 0 min 0 W/m 3,2 km/h (1 Bft) 95,74 %
22.01.2023 17:48 1,0 C 0,6 C -1,7 C 94 % 1032,6 hPa 0,0 l/m 0 min 0 min 0 W/m 6,4 km/h (2 Bft) 97,87 %
22.01.2023 17:50 1,0 C 0,6 C -1,7 C 94 % 1032,7 hPa 0,0 l/m 0 min 0 min 0 W/m 3,2 km/h (1 Bft) 100,00 %
22.01.2023 17:52 1,0 C 0,6 C -1,7 C 94 % 1032,6 hPa 0,0 l/m 0 min 0 min 0 W/m 6,4 km/h (2 Bft) 100,00 %
22.01.2023 17:54 1,0 C 0,6 C -1,7 C 94 % 1032,7 hPa 0,0 l/m 0 min 0 min 0 W/m 6,4 km/h (2 Bft) 97,87 %
22.01.2023 17:56 1,0 C 0,6 C -1,7 C 94 % 1032,7 hPa 0,0 l/m 0 min 0 min 0 W/m 9,7 km/h (2 Bft) 97,83 %
22.01.2023 17:58 1,0 C 0,6 C -1,7 C 94 % 1032,6 hPa 0,0 l/m 0 min 0 min 0 W/m 3,2 km/h (1 Bft) 95,74 %
22.01.2023 18:00 1,1 C 0,6 C -1,7 C 94 % 1032,6 hPa 0,0 l/m 0 min 0 min 0 W/m 3,2 km/h (1 Bft) 95,74 %
22.01.2023 18:02 1,1 C 0,6 C -1,7 C 94 % 1032,6 hPa 0,0 l/m 0 min 0 min 0 W/m 6,4 km/h (2 Bft) 97,87 %
22.01.2023 18:04 1,1 C 0,6 C -1,7 C 94 % 1032,6 hPa 0,0 l/m 0 min 0 min 0 W/m 6,4 km/h (2 Bft) 97,87 %
22.01.2023 18:07 1,1 C 0,6 C -1,7 C 94 % 1032,7 hPa 0,0 l/m 0 min 0 min 0 W/m 6,4 km/h (2 Bft) 97,14 %
22.01.2023 18:08 1,1 C 0,6 C -1,7 C 94 % 1032,7 hPa 0,0 l/m 0 min 0 min 0 W/m 3,2 km/h (1 Bft) 95,65 %
22.01.2023 18:12 1,1 C 0,6 C -1,7 C 94 % 1032,7 hPa 0,0 l/m 0 min 0 min 0 W/m 3,2 km/h (1 Bft) 98,04 %
22.01.2023 18:14 1,1 C 0,6 C -1,7 C 94 % 1032,7 hPa 0,0 l/m 0 min 0 min 0 W/m 6,4 km/h (2 Bft) 95,74 %
22.01.2023 18:16 1,1 C 0,6 C -1,7 C 94 % 1032,7 hPa 0,0 l/m 0 min 0 min 0 W/m 3,2 km/h (1 Bft) 97,87 %
22.01.2023 18:18 1,1 C 0,6 C -1,7 C 94 % 1032,7 hPa 0,0 l/m 0 min 0 min 0 W/m 6,4 km/h (2 Bft) 97,87 %
22.01.2023 18:20 1,1 C 0,6 C -1,7 C 94 % 1032,7 hPa 0,0 l/m 0 min 0 min 0 W/m 6,4 km/h (2 Bft) 95,74 %
22.01.2023 18:22 1,1 C 0,6 C -1,7 C 94 % 1032,7 hPa 0,0 l/m 0 min 0 min 0 W/m 6,4 km/h (2 Bft) 93,48 %
22.01.2023 18:24 1,1 C 0,6 C -1,7 C 94 % 1032,6 hPa 0,0 l/m 0 min 0 min 0 W/m 9,7 km/h (2 Bft) 95,74 %
22.01.2023 18:26 1,1 C 0,6 C -1,7 C 94 % 1032,7 hPa 0,0 l/m 0 min 0 min 0 W/m 12,9 km/h (3 Bft) 95,74 %
22.01.2023 18:28 1,1 C 0,6 C -1,7 C 94 % 1032,7 hPa 0,0 l/m 0 min 0 min 0 W/m 9,7 km/h (2 Bft) 95,74 %
22.01.2023 18:30 1,1 C 0,6 C -1,7 C 94 % 1032,7 hPa 0,0 l/m 0 min 0 min 0 W/m 6,4 km/h (2 Bft) 93,62 %
22.01.2023 18:32 1,1 C 0,6 C -1,7 C 94 % 1032,7 hPa 0,0 l/m 0 min 0 min 0 W/m 6,4 km/h (2 Bft) 97,87 %
22.01.2023 18:34 1,1 C 0,6 C -1,7 C 94 % 1032,7 hPa 0,0 l/m 0 min 0 min 0 W/m 9,7 km/h (2 Bft) 95,65 %
22.01.2023 18:36 1,1 C 0,6 C -1,7 C 94 % 1032,7 hPa 0,0 l/m 0 min 0 min 0 W/m 9,7 km/h (2 Bft) 95,74 %
22.01.2023 18:38 1,1 C 0,6 C -1,7 C 94 % 1032,8 hPa 0,0 l/m 0 min 0 min 0 W/m 6,4 km/h (2 Bft) 95,74 %
22.01.2023 18:40 1,1 C 0,6 C -1,7 C 94 % 1032,8 hPa 0,0 l/m 0 min 0 min 0 W/m 16,1 km/h (3 Bft) 95,74 %
22.01.2023 18:42 1,1 C 0,6 C -1,7 C 94 % 1032,8 hPa 0,0 l/m 0 min 0 min 0 W/m 6,4 km/h (2 Bft) 95,74 %
22.01.2023 18:44 1,1 C 0,6 C -1,7 C 94 % 1032,8 hPa 0,0 l/m 0 min 0 min 0 W/m 9,7 km/h (2 Bft) 97,87 %
22.01.2023 18:46 1,1 C 0,6 C -1,7 C 94 % 1032,8 hPa 0,0 l/m 0 min 0 min 0 W/m 6,4 km/h (2 Bft) 97,87 %
22.01.2023 18:48 1,1 C 0,6 C -1,7 C 94 % 1032,9 hPa 0,0 l/m 0 min 0 min 0 W/m 9,7 km/h (2 Bft) 93,48 %
22.01.2023 18:50 1,1 C 0,6 C -1,7 C 94 % 1033,0 hPa 0,0 l/m 0 min 0 min 0 W/m 6,4 km/h (2 Bft) 96,36 %
22.01.2023 18:52 1,1 C 0,6 C -1,7 C 94 % 1033,0 hPa 0,0 l/m 0 min 0 min 0 W/m 9,7 km/h (2 Bft) 95,74 %
22.01.2023 18:54 1,1 C 0,6 C -1,7 C 94 % 1033,0 hPa 0,0 l/m 0 min 0 min 0 W/m 6,4 km/h (2 Bft) 93,62 %
22.01.2023 18:56 1,1 C 0,6 C -1,7 C 94 % 1033,1 hPa 0,0 l/m 0 min 0 min 0 W/m 3,2 km/h (1 Bft) 91,30 %
22.01.2023 18:58 1,1 C 0,6 C -1,7 C 94 % 1033,0 hPa 0,0 l/m 0 min 0 min 0 W/m 6,4 km/h (2 Bft) 95,74 %
22.01.2023 19:00 1,1 C 0,6 C -1,7 C 94 % 1033,0 hPa 0,0 l/m 0 min 0 min 0 W/m 6,4 km/h (2 Bft) 93,62 %
22.01.2023 19:02 1,1 C 0,6 C -1,7 C 94 % 1033,1 hPa 0,0 l/m 0 min 0 min 0 W/m 3,2 km/h (1 Bft) 91,49 %
22.01.2023 19:04 1,1 C 0,6 C -1,7 C 94 % 1033,0 hPa 0,0 l/m 0 min 0 min 0 W/m 6,4 km/h (2 Bft) 95,74 %
22.01.2023 19:06 1,1 C 0,6 C -1,7 C 94 % 1033,0 hPa 0,0 l/m 0 min 0 min 0 W/m 9,7 km/h (2 Bft) 93,62 %
22.01.2023 19:08 1,1 C 0,6 C -1,7 C 94 % 1033,0 hPa 0,0 l/m 0 min 0 min 0 W/m 9,7 km/h (2 Bft) 95,65 %
22.01.2023 19:10 1,1 C 0,6 C -1,7 C 94 % 1033,1 hPa 0,0 l/m 0 min 0 min 0 W/m 9,7 km/h (2 Bft) 95,74 %
22.01.2023 19:12 1,1 C 0,6 C -1,7 C 94 % 1033,1 hPa 0,0 l/m 0 min 0 min 0 W/m 9,7 km/h (2 Bft) 97,87 %
22.01.2023 19:14 1,1 C 0,6 C -1,7 C 94 % 1033,0 hPa 0,0 l/m 0 min 0 min 0 W/m 6,4 km/h (2 Bft) 97,87 %
22.01.2023 19:16 1,1 C 0,6 C -1,7 C 94 % 1033,1 hPa 0,0 l/m 0 min 0 min 0 W/m 12,9 km/h (3 Bft) 95,74 %
22.01.2023 19:18 1,1 C 0,6 C -1,7 C 94 % 1033,1 hPa 0,0 l/m 0 min 0 min 0 W/m 9,7 km/h (2 Bft) 91,49 %
22.01.2023 19:20 1,1 C 0,6 C -1,7 C 94 % 1033,1 hPa 0,0 l/m 0 min 0 min 0 W/m 6,4 km/h (2 Bft) 97,87 %
22.01.2023 19:22 1,1 C 0,6 C -1,7 C 94 % 1033,1 hPa 0,0 l/m 0 min 0 min 0 W/m 6,4 km/h (2 Bft) 97,83 %
22.01.2023 19:24 1,1 C 0,6 C -1,7 C 94 % 1033,1 hPa 0,0 l/m 0 min 0 min 0 W/m 9,7 km/h (2 Bft) 97,87 %
22.01.2023 19:26 1,1 C 0,6 C -1,7 C 94 % 1033,1 hPa 0,0 l/m 0 min 0 min 0 W/m 9,7 km/h (2 Bft) 95,74 %
22.01.2023 19:28 1,1 C 0,6 C -1,7 C 94 % 1033,1 hPa 0,0 l/m 0 min 0 min 0 W/m 9,7 km/h (2 Bft) 97,87 %
22.01.2023 19:30 1,1 C 0,6 C -1,7 C 94 % 1033,2 hPa 0,0 l/m 0 min 0 min 0 W/m 3,2 km/h (1 Bft) 97,87 %
22.01.2023 19:32 1,1 C 0,6 C -1,7 C 94 % 1033,1 hPa 0,0 l/m 0 min 0 min 0 W/m 6,4 km/h (2 Bft) 100,00 %
22.01.2023 19:34 1,1 C 0,6 C -1,7 C 94 % 1033,2 hPa 0,0 l/m 0 min 0 min 0 W/m 6,4 km/h (2 Bft) 100,00 %
22.01.2023 19:36 1,1 C 0,6 C -1,7 C 94 % 1033,2 hPa 0,0 l/m 0 min 0 min 0 W/m 6,4 km/h (2 Bft) 95,65 %
22.01.2023 19:38 1,1 C 0,6 C -1,7 C 94 % 1033,2 hPa 0,0 l/m 0 min 0 min 0 W/m 9,7 km/h (2 Bft) 100,00 %
22.01.2023 19:40 1,1 C 0,6 C -1,7 C 94 % 1033,2 hPa 0,0 l/m 0 min 0 min 0 W/m 6,4 km/h (2 Bft) 97,87 %
22.01.2023 19:42 1,1 C 0,6 C -1,7 C 94 % 1033,2 hPa 0,0 l/m 0 min 0 min 0 W/m 9,7 km/h (2 Bft) 100,00 %
22.01.2023 19:44 1,1 C 0,6 C -1,7 C 94 % 1033,3 hPa 0,0 l/m 0 min 0 min 0 W/m 3,2 km/h (1 Bft) 100,00 %
22.01.2023 19:46 1,1 C 0,6 C -1,7 C 94 % 1033,3 hPa 0,0 l/m 0 min 0 min 0 W/m 6,4 km/h (2 Bft) 100,00 %
22.01.2023 19:48 1,1 C 0,6 C -1,7 C 94 % 1033,4 hPa 0,0 l/m 0 min 0 min 0 W/m 6,4 km/h (2 Bft) 95,65 %
22.01.2023 19:50 1,1 C 0,6 C -1,7 C 94 % 1033,3 hPa 0,0 l/m 0 min 0 min 0 W/m 3,2 km/h (1 Bft) 97,87 %
22.01.2023 19:52 1,1 C 0,6 C -1,7 C 94 % 1033,3 hPa 0,0 l/m 0 min 0 min 0 W/m 3,2 km/h (1 Bft) 97,87 %
22.01.2023 19:54 1,1 C 0,6 C -1,7 C 94 % 1033,3 hPa 0,0 l/m 0 min 0 min 0 W/m 3,2 km/h (1 Bft) 95,74 %
22.01.2023 19:56 1,1 C 0,6 C -1,7 C 94 % 1033,4 hPa 0,0 l/m 0 min 0 min 0 W/m 6,4 km/h (2 Bft) 97,87 %
22.01.2023 19:58 1,1 C 0,6 C -1,7 C 94 % 1033,3 hPa 0,0 l/m 0 min 0 min 0 W/m 9,7 km/h (2 Bft) 97,87 %
22.01.2023 20:00 1,1 C 0,6 C -1,7 C 94 % 1033,3 hPa 0,0 l/m 0 min 0 min 0 W/m 6,4 km/h (2 Bft) 97,87 %
22.01.2023 20:02 1,1 C 0,6 C -1,7 C 94 % 1033,4 hPa 0,0 l/m 0 min 0 min 0 W/m 9,7 km/h (2 Bft) 97,83 %
22.01.2023 20:04 1,1 C 0,6 C -1,7 C 94 % 1033,4 hPa 0,0 l/m 0 min 0 min 0 W/m 9,7 km/h (2 Bft) 95,74 %
22.01.2023 20:06 1,1 C 0,6 C -1,7 C 94 % 1033,4 hPa 0,0 l/m 0 min 0 min 0 W/m 6,4 km/h (2 Bft) 93,62 %
22.01.2023 20:08 1,1 C 0,6 C -1,7 C 94 % 1033,4 hPa 0,0 l/m 0 min 0 min 0 W/m 3,2 km/h (1 Bft) 97,87 %
22.01.2023 20:10 1,1 C 0,6 C -1,7 C 94 % 1033,5 hPa 0,0 l/m 0 min 0 min 0 W/m 12,9 km/h (3 Bft) 97,87 %
22.01.2023 20:12 1,1 C 0,6 C -1,7 C 94 % 1033,5 hPa 0,0 l/m 0 min 0 min 0 W/m 12,9 km/h (3 Bft) 97,87 %
22.01.2023 20:14 1,1 C 0,6 C -1,7 C 94 % 1033,5 hPa 0,0 l/m 0 min 0 min 0 W/m 6,4 km/h (2 Bft) 97,87 %
22.01.2023 20:16 1,1 C 0,6 C -1,7 C 94 % 1033,5 hPa 0,0 l/m 0 min 0 min 0 W/m 9,7 km/h (2 Bft) 95,65 %
22.01.2023 20:18 1,1 C 0,6 C -1,7 C 95 % 1033,6 hPa 0,0 l/m 0 min 0 min 0 W/m 12,9 km/h (3 Bft) 95,74 %
22.01.2023 20:20 1,1 C 0,6 C -1,7 C 95 % 1033,5 hPa 0,0 l/m 0 min 0 min 0 W/m 3,2 km/h (1 Bft) 97,87 %
22.01.2023 20:22 1,1 C 0,6 C -1,7 C 95 % 1033,5 hPa 0,0 l/m 0 min 0 min 0 W/m 3,2 km/h (1 Bft) 95,74 %
22.01.2023 20:24 1,1 C 0,6 C -1,7 C 95 % 1033,6 hPa 0,0 l/m 0 min 0 min 0 W/m 9,7 km/h (2 Bft) 97,87 %
22.01.2023 20:26 1,1 C 0,6 C -1,7 C 95 % 1033,6 hPa 0,0 l/m 0 min 0 min 0 W/m 6,4 km/h (2 Bft) 100,00 %
22.01.2023 20:28 1,1 C 0,6 C -1,7 C 95 % 1033,6 hPa 0,0 l/m 0 min 0 min 0 W/m 6,4 km/h (2 Bft) 97,83 %
22.01.2023 20:30 1,1 C 0,6 C -1,7 C 95 % 1033,6 hPa 0,0 l/m 0 min 0 min 0 W/m 3,2 km/h (1 Bft) 97,87 %
22.01.2023 20:32 1,1 C 0,6 C -1,7 C 95 % 1033,6 hPa 0,0 l/m 0 min 0 min 0 W/m 0,0 km/h (0 Bft) 97,87 %
22.01.2023 20:34 1,1 C 0,6 C -1,7 C 95 % 1033,5 hPa 0,0 l/m 0 min 0 min 0 W/m 3,2 km/h (1 Bft) 93,62 %
22.01.2023 20:36 1,1 C 0,6 C -1,7 C 95 % 1033,5 hPa 0,0 l/m 0 min 0 min 0 W/m 3,2 km/h (1 Bft) 97,87 %
22.01.2023 20:38 1,1 C 0,6 C -1,7 C 95 % 1033,6 hPa 0,0 l/m 0 min 0 min 0 W/m 3,2 km/h (1 Bft) 100,00 %
22.01.2023 20:40 1,1 C 0,6 C -1,7 C 95 % 1033,6 hPa 0,0 l/m 0 min 0 min 0 W/m 3,2 km/h (1 Bft) 97,87 %
22.01.2023 20:42 1,2 C 0,6 C -1,7 C 95 % 1033,5 hPa 0,0 l/m 0 min 0 min 0 W/m 3,2 km/h (1 Bft) 97,83 %
22.01.2023 20:44 1,2 C 0,6 C -1,7 C 95 % 1033,5 hPa 0,0 l/m 0 min 0 min 0 W/m 6,4 km/h (2 Bft) 100,00 %
22.01.2023 20:46 1,1 C 0,6 C -1,7 C 95 % 1033,6 hPa 0,0 l/m 0 min 0 min 0 W/m 6,4 km/h (2 Bft) 97,87 %
22.01.2023 20:48 1,2 C 0,6 C -1,7 C 95 % 1033,6 hPa 0,0 l/m 0 min 0 min 0 W/m 3,2 km/h (1 Bft) 97,87 %
22.01.2023 20:50 1,2 C 0,6 C -1,7 C 95 % 1033,6 hPa 0,0 l/m 0 min 0 min 0 W/m 6,4 km/h (2 Bft) 100,00 %
22.01.2023 20:52 1,2 C 0,6 C -1,7 C 95 % 1033,6 hPa 0,0 l/m 0 min 0 min 0 W/m 3,2 km/h (1 Bft) 97,87 %
22.01.2023 20:54 1,2 C 0,6 C -1,7 C 95 % 1033,7 hPa 0,0 l/m 0 min 0 min 0 W/m 3,2 km/h (1 Bft) 100,00 %
22.01.2023 20:56 1,2 C 0,6 C -1,7 C 95 % 1033,7 hPa 0,0 l/m 0 min 0 min 0 W/m 3,2 km/h (1 Bft) 100,00 %
22.01.2023 20:58 1,2 C 0,6 C -1,7 C 95 % 1033,7 hPa 0,0 l/m 0 min 0 min 0 W/m 3,2 km/h (1 Bft) 97,87 %
22.01.2023 21:00 1,2 C 0,6 C -1,7 C 95 % 1033,8 hPa 0,0 l/m 0 min 0 min 0 W/m 3,2 km/h (1 Bft) 97,87 %
22.01.2023 21:02 1,2 C 0,6 C -1,7 C 95 % 1033,8 hPa 0,0 l/m 0 min 0 min 0 W/m 6,4 km/h (2 Bft) 100,00 %
22.01.2023 21:04 1,2 C 0,6 C -1,7 C 95 % 1033,8 hPa 0,0 l/m 0 min 0 min 0 W/m 9,7 km/h (2 Bft) 97,87 %
22.01.2023 21:06 1,2 C 0,6 C -1,7 C 95 % 1033,8 hPa 0,0 l/m 0 min 0 min 0 W/m 3,2 km/h (1 Bft) 100,00 %
22.01.2023 21:08 1,2 C 0,6 C -1,7 C 95 % 1033,8 hPa 0,0 l/m 0 min 0 min 0 W/m 0,0 km/h (0 Bft) 97,83 %
22.01.2023 21:10 1,2 C 0,6 C -1,7 C 95 % 1033,9 hPa 0,0 l/m 0 min 0 min 0 W/m 3,2 km/h (1 Bft) 91,49 %
22.01.2023 21:12 1,2 C 0,6 C -1,7 C 95 % 1033,9 hPa 0,0 l/m 0 min 0 min 0 W/m 0,0 km/h (0 Bft) 53,19 %
22.01.2023 21:14 1,2 C 0,6 C -1,7 C 95 % 1033,9 hPa 0,0 l/m 0 min 0 min 0 W/m 0,0 km/h (0 Bft) 97,87 %
22.01.2023 21:16 1,2 C 0,6 C -1,7 C 95 % 1033,9 hPa 0,0 l/m 0 min 0 min 0 W/m 6,4 km/h (2 Bft) 95,74 %
22.01.2023 21:18 1,2 C 0,6 C -1,7 C 95 % 1033,9 hPa 0,0 l/m 0 min 0 min 0 W/m 6,4 km/h (2 Bft) 95,74 %
22.01.2023 21:20 1,2 C 0,6 C -1,7 C 95 % 1033,9 hPa 0,0 l/m 0 min 0 min 0 W/m 6,4 km/h (2 Bft) 95,74 %
22.01.2023 21:22 1,2 C 0,6 C -1,7 C 95 % 1033,9 hPa 0,0 l/m 0 min 0 min 0 W/m 6,4 km/h (2 Bft) 95,65 %
22.01.2023 21:24 1,2 C 0,6 C -1,7 C 95 % 1033,9 hPa 0,0 l/m 0 min 0 min 0 W/m 3,2 km/h (1 Bft) 95,74 %
22.01.2023 21:26 1,2 C 0,6 C -1,7 C 95 % 1033,9 hPa 0,0 l/m 0 min 0 min 0 W/m 3,2 km/h (1 Bft) 95,74 %
22.01.2023 21:28 1,2 C 0,6 C -1,7 C 95 % 1033,9 hPa 0,0 l/m 0 min 0 min 0 W/m 3,2 km/h (1 Bft) 95,74 %
22.01.2023 21:30 1,2 C 0,6 C -1,7 C 95 % 1033,9 hPa 0,0 l/m 0 min 0 min 0 W/m 3,2 km/h (1 Bft) 93,62 %
22.01.2023 21:32 1,2 C 0,6 C -1,7 C 95 % 1034,0 hPa 0,0 l/m 0 min 0 min 0 W/m 3,2 km/h (1 Bft) 93,62 %
22.01.2023 21:34 1,2 C 0,6 C -1,7 C 95 % 1034,0 hPa 0,0 l/m 0 min 0 min 0 W/m 0,0 km/h (0 Bft) 95,74 %
22.01.2023 21:36 1,2 C 0,6 C -1,7 C 95 % 1033,9 hPa 0,0 l/m 0 min 0 min 0 W/m 0,0 km/h (0 Bft) 95,65 %
22.01.2023 21:38 1,2 C 0,6 C -1,7 C 95 % 1034,0 hPa 0,0 l/m 0 min 0 min 0 W/m 3,2 km/h (1 Bft) 93,62 %
22.01.2023 21:40 1,2 C 0,6 C -1,7 C 95 % 1034,0 hPa 0,0 l/m 0 min 0 min 0 W/m 0,0 km/h (0 Bft) 95,74 %
22.01.2023 21:42 1,2 C 0,6 C -1,7 C 95 % 1033,9 hPa 0,0 l/m 0 min 0 min 0 W/m 0,0 km/h (0 Bft) 93,62 %
22.01.2023 21:44 1,2 C 0,6 C -1,7 C 95 % 1033,9 hPa 0,0 l/m 0 min 0 min 0 W/m 0,0 km/h (0 Bft) 95,74 %
22.01.2023 21:46 1,2 C 0,6 C -1,7 C 95 % 1033,9 hPa 0,0 l/m 0 min 0 min 0 W/m 0,0 km/h (0 Bft) 91,49 %
22.01.2023 21:48 1,2 C 0,6 C -1,7 C 95 % 1033,9 hPa 0,0 l/m 0 min 0 min 0 W/m 0,0 km/h (0 Bft) 91,49 %
22.01.2023 21:50 1,2 C 0,6 C -1,7 C 95 % 1033,9 hPa 0,0 l/m 0 min 0 min 0 W/m 3,2 km/h (1 Bft) 91,30 %
22.01.2023 21:52 1,2 C 0,6 C -1,7 C 95 % 1033,9 hPa 0,0 l/m 0 min 0 min 0 W/m 3,2 km/h (1 Bft) 93,62 %
22.01.2023 21:54 1,2 C 0,6 C -1,7 C 95 % 1033,9 hPa 0,0 l/m 0 min 0 min 0 W/m 3,2 km/h (1 Bft) 93,62 %
22.01.2023 21:56 1,2 C 0,6 C -1,7 C 95 % 1033,9 hPa 0,0 l/m 0 min 0 min 0 W/m 3,2 km/h (1 Bft) 93,62 %
22.01.2023 21:58 1,2 C 0,6 C -1,7 C 95 % 1033,8 hPa 0,0 l/m 0 min 0 min 0 W/m 3,2 km/h (1 Bft) 91,49 %
22.01.2023 22:00 1,2 C 0,6 C -1,7 C 95 % 1033,9 hPa 0,0 l/m 0 min 0 min 0 W/m 0,0 km/h (0 Bft) 93,62 %
22.01.2023 22:02 1,2 C 0,6 C -1,7 C 95 % 1033,9 hPa 0,0 l/m 0 min 0 min 0 W/m 6,4 km/h (2 Bft) 91,49 %
22.01.2023 22:04 1,3 C 0,6 C -1,7 C 95 % 1033,9 hPa 0,0 l/m 0 min 0 min 0 W/m 0,0 km/h (0 Bft) 95,65 %
22.01.2023 22:06 1,3 C 0,6 C -1,1 C 95 % 1034,0 hPa 0,0 l/m 0 min 0 min 0 W/m 0,0 km/h (0 Bft) 95,74 %
22.01.2023 22:08 1,3 C 0,6 C -1,7 C 95 % 1034,0 hPa 0,0 l/m 0 min 0 min 0 W/m 3,2 km/h (1 Bft) 97,87 %
22.01.2023 22:10 1,3 C 0,6 C -1,7 C 95 % 1034,0 hPa 0,0 l/m 0 min 0 min 0 W/m 3,2 km/h (1 Bft) 95,74 %
22.01.2023 22:12 1,3 C 0,6 C -1,1 C 95 % 1033,9 hPa 0,0 l/m 0 min 0 min 0 W/m 6,4 km/h (2 Bft) 97,87 %
22.01.2023 22:14 1,3 C 0,6 C -1,1 C 95 % 1033,9 hPa 0,0 l/m 0 min 0 min 0 W/m 3,2 km/h (1 Bft) 97,87 %
22.01.2023 22:16 1,3 C 0,6 C -1,1 C 95 % 1034,0 hPa 0,0 l/m 0 min 0 min 0 W/m 3,2 km/h (1 Bft) 95,74 %
22.01.2023 22:18 1,3 C 0,6 C -1,1 C 95 % 1034,0 hPa 0,0 l/m 0 min 0 min 0 W/m 0,0 km/h (0 Bft) 97,83 %
22.01.2023 22:20 1,3 C 0,6 C -1,1 C 95 % 1034,0 hPa 0,0 l/m 0 min 0 min 0 W/m 3,2 km/h (1 Bft) 100,00 %
22.01.2023 22:22 1,3 C 0,6 C -1,1 C 95 % 1034,0 hPa 0,0 l/m 0 min 0 min 0 W/m 0,0 km/h (0 Bft) 100,00 %
22.01.2023 22:24 1,3 C 0,6 C -1,1 C 95 % 1034,0 hPa 0,0 l/m 0 min 0 min 0 W/m 9,7 km/h (2 Bft) 95,74 %
22.01.2023 22:26 1,3 C 0,6 C -1,1 C 95 % 1034,0 hPa 0,0 l/m 0 min 0 min 0 W/m 3,2 km/h (1 Bft) 97,87 %
22.01.2023 22:28 1,3 C 0,6 C -1,1 C 95 % 1034,0 hPa 0,0 l/m 0 min 0 min 0 W/m 3,2 km/h (1 Bft) 97,87 %
22.01.2023 22:33 1,3 C 0,6 C -1,1 C 95 % 1034,1 hPa 0,0 l/m 0 min 0 min 0 W/m 6,4 km/h (2 Bft) 98,18 %
22.01.2023 22:34 1,3 C 0,6 C -1,1 C 95 % 1034,1 hPa 0,0 l/m 0 min 0 min 0 W/m 6,4 km/h (2 Bft) 100,00 %
22.01.2023 22:36 1,3 C 0,6 C -1,1 C 95 % 1034,1 hPa 0,0 l/m 0 min 0 min 0 W/m 6,4 km/h (2 Bft) 100,00 %
22.01.2023 22:38 1,3 C 0,6 C -1,1 C 95 % 1034,1 hPa 0,0 l/m 0 min 0 min 0 W/m 3,2 km/h (1 Bft) 97,87 %
22.01.2023 22:40 1,3 C 0,6 C -1,1 C 95 % 1034,0 hPa 0,0 l/m 0 min 0 min 0 W/m 3,2 km/h (1 Bft) 100,00 %
22.01.2023 22:42 1,3 C 0,6 C -1,1 C 95 % 1034,0 hPa 0,0 l/m 0 min 0 min 0 W/m 3,2 km/h (1 Bft) 100,00 %
22.01.2023 22:44 1,3 C 0,6 C -1,1 C 95 % 1034,0 hPa 0,0 l/m 0 min 0 min 0 W/m 0,0 km/h (0 Bft) 100,00 %
22.01.2023 22:46 1,3 C 0,6 C -1,1 C 95 % 1034,0 hPa 0,0 l/m 0 min 0 min 0 W/m 3,2 km/h (1 Bft) 97,87 %
22.01.2023 22:48 1,3 C 0,6 C -1,1 C 95 % 1034,0 hPa 0,0 l/m 0 min 0 min 0 W/m 0,0 km/h (0 Bft) 100,00 %
22.01.2023 22:50 1,3 C 0,6 C -1,1 C 95 % 1034,1 hPa 0,0 l/m 0 min 0 min 0 W/m 0,0 km/h (0 Bft) 57,45 %
22.01.2023 22:52 1,3 C 0,6 C -1,1 C 95 % 1034,0 hPa 0,0 l/m 0 min 0 min 0 W/m 3,2 km/h (1 Bft) 100,00 %
22.01.2023 22:54 1,3 C 0,6 C -1,1 C 95 % 1034,1 hPa 0,0 l/m 0 min 0 min 0 W/m 3,2 km/h (1 Bft) 97,87 %
22.01.2023 22:56 1,3 C 0,6 C -1,1 C 95 % 1034,1 hPa 0,0 l/m 0 min 0 min 0 W/m 3,2 km/h (1 Bft) 100,00 %
22.01.2023 22:58 1,3 C 0,6 C -1,1 C 95 % 1034,1 hPa 0,0 l/m 0 min 0 min 0 W/m 3,2 km/h (1 Bft) 100,00 %
22.01.2023 23:00 1,3 C 0,6 C -1,1 C 95 % 1034,2 hPa 0,0 l/m 0 min 0 min 0 W/m 3,2 km/h (1 Bft) 100,00 %
22.01.2023 23:02 1,3 C 0,6 C -1,1 C 95 % 1034,1 hPa 0,0 l/m 0 min 0 min 0 W/m 3,2 km/h (1 Bft) 100,00 %
22.01.2023 23:04 1,3 C 0,6 C -1,1 C 95 % 1034,2 hPa 0,0 l/m 0 min 0 min 0 W/m 3,2 km/h (1 Bft) 97,87 %
22.01.2023 23:06 1,3 C 0,6 C -1,1 C 95 % 1034,2 hPa 0,0 l/m 0 min 0 min 0 W/m 3,2 km/h (1 Bft) 100,00 %
22.01.2023 23:08 1,3 C 0,6 C -1,1 C 95 % 1034,2 hPa 0,0 l/m 0 min 0 min 0 W/m 3,2 km/h (1 Bft) 100,00 %
22.01.2023 23:10 1,3 C 0,6 C -1,1 C 95 % 1034,1 hPa 0,0 l/m 0 min 0 min 0 W/m 3,2 km/h (1 Bft) 100,00 %
22.01.2023 23:12 1,3 C 0,6 C -1,1 C 95 % 1034,1 hPa 0,0 l/m 0 min 0 min 0 W/m 6,4 km/h (2 Bft) 100,00 %
22.01.2023 23:14 1,3 C 0,6 C -1,1 C 95 % 1034,1 hPa 0,0 l/m 0 min 0 min 0 W/m 3,2 km/h (1 Bft) 100,00 %
22.01.2023 23:16 1,3 C 0,6 C -1,1 C 95 % 1034,1 hPa 0,0 l/m 0 min 0 min 0 W/m 6,4 km/h (2 Bft) 97,87 %
22.01.2023 23:18 1,3 C 0,6 C -1,1 C 95 % 1034,1 hPa 0,0 l/m 0 min 0 min 0 W/m 0,0 km/h (0 Bft) 100,00 %
22.01.2023 23:20 1,3 C 0,6 C -1,1 C 95 % 1034,2 hPa 0,0 l/m 0 min 0 min 0 W/m 3,2 km/h (1 Bft) 100,00 %
22.01.2023 23:22 1,3 C 0,6 C -1,1 C 95 % 1034,2 hPa 0,0 l/m 0 min 0 min 0 W/m 6,4 km/h (2 Bft) 100,00 %
22.01.2023 23:24 1,3 C 0,6 C -1,1 C 95 % 1034,2 hPa 0,0 l/m 0 min 0 min 0 W/m 0,0 km/h (0 Bft) 100,00 %
22.01.2023 23:26 1,3 C 0,6 C -1,1 C 95 % 1034,2 hPa 0,0 l/m 0 min 0 min 0 W/m 3,2 km/h (1 Bft) 93,62 %
22.01.2023 23:28 1,4 C 0,6 C -1,1 C 95 % 1034,2 hPa 0,0 l/m 0 min 0 min 0 W/m 3,2 km/h (1 Bft) 100,00 %
22.01.2023 23:30 1,4 C 0,6 C -1,1 C 95 % 1034,2 hPa 0,0 l/m 0 min 0 min 0 W/m 6,4 km/h (2 Bft) 100,00 %
22.01.2023 23:32 1,4 C 0,6 C -1,1 C 95 % 1034,2 hPa 0,0 l/m 0 min 0 min 0 W/m 3,2 km/h (1 Bft) 95,74 %
22.01.2023 23:34 1,4 C 0,6 C -1,1 C 95 % 1034,2 hPa 0,0 l/m 0 min 0 min 0 W/m 3,2 km/h (1 Bft) 100,00 %
22.01.2023 23:36 1,4 C 0,6 C -1,1 C 95 % 1034,2 hPa 0,0 l/m 0 min 0 min 0 W/m 6,4 km/h (2 Bft) 95,74 %
22.01.2023 23:38 1,4 C 0,6 C -1,1 C 95 % 1034,2 hPa 0,0 l/m 0 min 0 min 0 W/m 6,4 km/h (2 Bft) 72,34 %
22.01.2023 23:40 1,4 C 0,6 C -1,1 C 95 % 1034,2 hPa 0,0 l/m 0 min 0 min 0 W/m 3,2 km/h (1 Bft) 82,22 %
22.01.2023 23:42 1,4 C 0,6 C -1,1 C 95 % 1034,2 hPa 0,0 l/m 0 min 0 min 0 W/m 3,2 km/h (1 Bft) 97,83 %
22.01.2023 23:44 1,4 C 0,6 C -1,1 C 95 % 1034,2 hPa 0,0 l/m 0 min 0 min 0 W/m 3,2 km/h (1 Bft) 97,87 %
22.01.2023 23:46 1,4 C 0,6 C -1,1 C 95 % 1034,3 hPa 0,0 l/m 0 min 0 min 0 W/m 0,0 km/h (0 Bft) 95,74 %
22.01.2023 23:48 1,4 C 0,6 C -1,1 C 95 % 1034,2 hPa 0,0 l/m 0 min 0 min 0 W/m 0,0 km/h (0 Bft) 95,74 %
22.01.2023 23:50 1,4 C 0,6 C -1,1 C 95 % 1034,2 hPa 0,0 l/m 0 min 0 min 0 W/m 3,2 km/h (1 Bft) 95,74 %
22.01.2023 23:52 1,4 C 0,6 C -1,1 C 95 % 1034,2 hPa 0,0 l/m 0 min 0 min 0 W/m 0,0 km/h (0 Bft) 93,62 %
22.01.2023 23:54 1,4 C 0,6 C -1,1 C 95 % 1034,2 hPa 0,0 l/m 0 min 0 min 0 W/m 0,0 km/h (0 Bft) 95,65 %
22.01.2023 23:56 1,4 C 0,6 C -1,1 C 95 % 1034,2 hPa 0,0 l/m 0 min 0 min 0 W/m 3,2 km/h (1 Bft) 93,62 %
22.01.2023 23:58 1,4 C 1,1 C -1,1 C 95 % 1034,2 hPa 0,0 l/m 0 min 0 min 0 W/m 0,0 km/h (0 Bft) 95,74 %
_ Min-Zeit 00:40 00:22 00:00 00:00 05:28 - - - - 17:44 09:54
Minimum _ -0,6 C -1,7 C -3,3 C 94 % 1031,0 hPa - - - - 0,0 km/h (0 Bft) 50,00 %
_ Max-Zeit 23:28 12:04 12:28 00:26 23:46 00:00 00:00 00:00 12:14 03:32 00:02
Maximum _ 1,4 C 1,1 C -1,1 C 95 % 1034,3 hPa 0,0 l/m 0 min 0 min 103 W/m 25,7 km/h
N-NW (4 Bft)
100,00 %
Durchschnitt _ 0,4 C 0,0 C -2,2 C 94 % 1032,2 hPa #0,0 l/m #0 min. #0 min. 40 W/m 10,4 km/h (2 Bft) 96,86 %
© 2023 W. Hausmann